Flight Track Log - Related Links

Times and Time Zones

All times are in EDT time to prevent confusion due to time zone crossing. See the N662US flight status page for this flight to view local times or setup timezone preferences in your user account.

Time Position Orientation Groundspeed Altitude Reporting Facility
EDT Latitude Longitude Course Direction KTS MPH feet Rate Location/Type
Sun 02:38:28 AM 35.7320 140.3980 150° Southeast 184 212 900  Level FlightAware ADS-B
Sun 02:38:56 AM 35.7120 140.4130 149° Southeast 191 220 1,600 1,393 Climbing FlightAware ADS-B
Sun 02:39:24 AM 35.6900 140.4290 149° Southeast 194 223 2,200 1,286 Climbing FlightAware ADS-B
Sun 02:39:52 AM 35.6680 140.4450 149° Southeast 198 228 2,800 1,179 Climbing FlightAware ADS-B
Sun 02:40:20 AM 35.6460 140.4610 149° Southeast 201 231 3,300 955 Climbing FlightAware ADS-B
Sun 02:40:36 AM 35.6320 140.4710 150° Southeast 213 245 3,500 533 Climbing FlightAware ADS-B
Sun 02:41:05 AM 35.6060 140.4900 149° Southeast 242 278 3,700 621 Climbing FlightAware ADS-B
Sun 02:41:34 AM 35.5760 140.5110 150° Southeast 267 307 4,100 947 Climbing FlightAware ADS-B
Sun 02:42:02 AM 35.5440 140.5330 151° Southeast 287 330 4,600 1,000 Climbing FlightAware ADS-B
Sun 02:42:16 AM 35.5250 140.5380 168° South 299 344 4,800 750 Climbing FlightAware ADS-B
Sun 02:42:42 AM 35.5030 140.5320 193° South 303 349 5,100 1,565 Climbing FlightAware ADS-B
Sun 02:43:02 AM 35.4700 140.5020 217° Southwest 309 356 6,000 2,333 Climbing FlightAware ADS-B
Sun 02:43:18 AM 35.4630 140.4750 252° West 310 357 6,500 2,093 Climbing FlightAware ADS-B
Sun 02:43:45 AM 35.4730 140.4310 286° West 316 364 7,500 2,108 Climbing FlightAware ADS-B
Sun 02:43:55 AM 35.4840 140.4180 316° Northwest 319 367 7,800 2,400 Climbing FlightAware ADS-B
Sun 02:44:20 AM 35.5140 140.3920 325° Northwest 311 358 8,900 2,492 Climbing FlightAware ADS-B
Sun 02:45:00 AM 35.5640 140.3530 328° Northwest 320 368 10,500 1,765 Climbing FlightAware ADS-B
Sun 02:45:45 AM 35.6250 140.3100 330° Northwest 353 406 11,400 1,059 Climbing FlightAware ADS-B
Sun 02:46:25 AM 35.6850 140.2690 331° Northwest 376 433 12,000 1,059 Climbing FlightAware ADS-B
Sun 02:47:10 AM 35.7580 140.2180 330° Northwest 409 471 12,900 1,500 Climbing FlightAware ADS-B
Sun 02:47:49 AM 35.8240 140.1720 331° Northwest 406 467 14,100 1,575 Climbing FlightAware ADS-B
Sun 02:48:30 AM 35.8920 140.1250 331° Northwest 403 464 15,000 907 Climbing FlightAware ADS-B
Sun 02:49:15 AM 35.9640 140.0750 331° Northwest 410 472 15,400 1,059 Climbing FlightAware ADS-B
Sun 02:49:55 AM 36.0310 140.0280 330° Northwest 412 474 16,500 1,482 Climbing FlightAware ADS-B
Sun 02:50:40 AM 36.1090 139.9740 331° Northwest 426 490 17,500 1,200 Climbing FlightAware ADS-B
Sun 02:51:20 AM 36.1790 139.9240 330° Northwest 448 516 18,200 1,200 Climbing FlightAware ADS-B
Sun 02:52:00 AM 36.2520 139.8730 331° Northwest 461 531 19,100 1,212 Climbing FlightAware ADS-B
Sun 02:52:59 AM 36.3850 139.8570 354° North 487 560 20,200 1,212 Climbing FlightAware ADS-B
Sun 02:53:39 AM 36.4770 139.8640 North 496 571 21,100 1,214 Climbing FlightAware ADS-B
Sun 02:54:23 AM 36.5770 139.8860 10° North 506 582 21,900 1,186 Climbing FlightAware ADS-B
Sun 02:55:05 AM 36.6750 139.9110 12° North 511 588 22,800 1,098 Climbing FlightAware ADS-B
Sun 02:55:45 AM 36.7680 139.9350 12° North 517 595 23,400 880 Climbing FlightAware ADS-B
Sun 02:56:20 AM 36.8490 139.9560 12° North 522 601 23,900 986 Climbing FlightAware ADS-B
Sun 02:56:58 AM 36.9370 139.9780 11° North 526 605 24,600 929 Climbing FlightAware ADS-B
Sun 02:57:44 AM 37.0510 140.0070 11° North 534 615 25,200 878 Climbing FlightAware ADS-B
Sun 02:58:20 AM 37.1400 140.0300 12° North 537 618 25,800 868 Climbing FlightAware ADS-B
Sun 02:59:00 AM 37.2360 140.0550 12° North 538 619 26,300 805 Climbing FlightAware ADS-B
Sun 02:59:42 AM 37.3410 140.0820 12° North 541 623 26,900 977 Climbing FlightAware ADS-B
Sun 03:00:26 AM 37.4470 140.1100 12° North 534 615 27,700 1,071 Climbing FlightAware ADS-B
Sun 03:01:06 AM 37.5460 140.1350 11° North 533 613 28,400 975 Climbing FlightAware ADS-B
Sun 03:01:46 AM 37.6410 140.1620 13° North 532 612 29,000 429 Climbing FlightAware ADS-B
Sun 03:02:30 AM 37.7460 140.1930 13° North 538 619 29,000  Level FlightAware ADS-B
Sun 03:03:21 AM 37.8710 140.2290 13° North 539 620 29,000  Level FlightAware ADS-B
Sun 03:03:56 AM 37.9550 140.2530 13° North 538 619 29,000  Level FlightAware ADS-B
Sun 03:04:46 AM 38.0730 140.2860 12° North 536 617 29,000  Level FlightAware ADS-B
Sun 03:05:21 AM 38.1620 140.3120 13° North 537 618 29,000  Level FlightAware ADS-B
Sun 03:06:01 AM 38.2600 140.3400 13° North 540 621 29,000  Level FlightAware ADS-B
Sun 03:06:40 AM 38.3570 140.3680 13° North 543 625 29,000  Level FlightAware ADS-B
Sun 03:07:26 AM 38.4680 140.4000 13° North 544 626 29,000  Level FlightAware ADS-B
Sun 03:08:06 AM 38.5670 140.4290 13° North 542 624 29,000  Level FlightAware ADS-B
Sun 03:09:01 AM 38.6960 140.4670 13° North 539 620 29,000  Level FlightAware ADS-B
Sun 03:09:45 AM 38.8070 140.4990 13° North 539 620 29,000  Level FlightAware ADS-B
Sun 03:10:20 AM 38.8940 140.5250 13° North 539 620 29,000  Level FlightAware ADS-B
Sun 03:10:56 AM 38.9750 140.5480 12° North 541 623 29,000  Level FlightAware ADS-B
Sun 03:12:01 AM 39.1370 140.5990 14° North 533 613 29,000  Level FlightAware ADS-B
Sun 03:12:31 AM 39.2090 140.6280 17° North 546 628 29,000  Level FlightAware ADS-B
Sun 03:13:16 AM 39.3120 140.6920 26° Northeast 557 641 29,000  Level FlightAware ADS-B
Sun 03:13:56 AM 39.4010 140.7640 32° Northeast 551 634 29,000  Level FlightAware ADS-B
Sun 03:14:36 AM 39.4880 140.8340 32° Northeast 550 633 29,000  Level FlightAware ADS-B
Sun 03:15:21 AM 39.5870 140.9160 33° Northeast 557 641 29,000  Level FlightAware ADS-B
Sun 03:16:01 AM 39.6730 140.9870 32° Northeast 550 633 29,000  Level FlightAware ADS-B
Sun 03:16:46 AM 39.7710 141.0660 32° Northeast 549 632 29,000  Level FlightAware ADS-B
Sun 03:17:26 AM 39.8600 141.1360 31° Northeast 548 631 29,000  Level FlightAware ADS-B
Sun 03:18:07 AM 39.9480 141.2030 30° Northeast 549 632 29,000  Level FlightAware ADS-B
Sun 03:18:51 AM 40.0470 141.2830 32° Northeast 547 629 29,000  Level FlightAware ADS-B
Sun 03:19:31 AM 40.1340 141.3510 31° Northeast 546 628 29,000  Level FlightAware ADS-B
Sun 03:20:17 AM 40.2340 141.4310 31° Northeast 545 627 29,000  Level FlightAware ADS-B
Sun 03:20:55 AM 40.3170 141.4970 31° Northeast 545 627 29,000  Level FlightAware ADS-B
Sun 03:21:31 AM 40.3980 141.5620 31° Northeast 545 627 29,000  Level FlightAware ADS-B
Sun 03:22:14 AM 40.4890 141.6350 31° Northeast 545 627 29,000  Level FlightAware ADS-B
Sun 03:22:59 AM 40.5880 141.7140 31° Northeast 545 627 29,000  Level FlightAware ADS-B
Sun 03:23:39 AM 40.6740 141.7850 32° Northeast 547 629 29,000  Level FlightAware ADS-B
Sun 03:24:21 AM 40.7670 141.8590 31° Northeast 548 631 29,000  Level FlightAware ADS-B
Sun 03:24:59 AM 40.8500 141.9270 32° Northeast 549 632 29,000  Level FlightAware ADS-B
Sun 03:25:45 AM 40.9490 142.0070 31° Northeast 551 634 29,000  Level FlightAware ADS-B
Sun 03:26:27 AM 41.0440 142.0850 32° Northeast 551 634 29,000  Level FlightAware ADS-B
Sun 03:27:08 AM 41.1360 142.1600 32° Northeast 552 635 29,000  Level FlightAware ADS-B
Sun 03:27:49 AM 41.2240 142.2340 32° Northeast 550 633 29,000  Level FlightAware ADS-B
Sun 03:28:29 AM 41.3120 142.3070 32° Northeast 549 632 29,000  Level FlightAware ADS-B
Sun 03:29:14 AM 41.4120 142.3900 32° Northeast 551 634 29,000  Level FlightAware ADS-B
Sun 03:29:59 AM 41.5090 142.4710 32° Northeast 554 638 29,000  Level FlightAware ADS-B
Sun 03:30:39 AM 41.6000 142.5460 32° Northeast 557 641 29,000  Level FlightAware ADS-B
Sun 03:31:20 AM 41.6900 142.6210 32° Northeast 567 652 29,000  Level FlightAware ADS-B
Sun 03:32:05 AM 41.7860 142.7010 32° Northeast 567 652 29,000  Level FlightAware ADS-B
Sun 03:32:45 AM 41.8800 142.7820 33° Northeast 567 652 29,000  Level FlightAware ADS-B
Sun 03:33:20 AM 41.9560 142.8450 32° Northeast 566 651 29,000  Level FlightAware ADS-B
Sun 03:34:05 AM 42.0560 142.9300 32° Northeast 555 639 29,000  Level FlightAware ADS-B
Sun 03:34:42 AM 42.1340 142.9970 32° Northeast 553 636 29,000  Level FlightAware ADS-B
Sun 03:35:21 AM 42.2230 143.0740 33° Northeast 553 636 29,000  Level FlightAware ADS-B
Sun 03:36:01 AM 42.3100 143.1470 32° Northeast 554 638 29,000 357 Level FlightAware ADS-B
Sun 03:36:45 AM 42.4070 143.2320 33° Northeast 555 639 29,500 825 Climbing FlightAware ADS-B
Sun 03:37:21 AM 42.4840 143.2980 32° Northeast 554 638 30,100 951 Climbing FlightAware ADS-B
Sun 03:38:07 AM 42.5850 143.3840 32° Northeast 552 635 30,800 628 Climbing FlightAware ADS-B
Sun 03:38:47 AM 42.6720 143.4600 33° Northeast 557 641 31,000 141 Climbing FlightAware ADS-B
Sun 03:39:32 AM 42.7660 143.5430 33° Northeast 551 634 31,000  Level FlightAware ADS-B
Sun 03:40:06 AM 42.8430 143.6110 33° Northeast 543 625 31,000  Level FlightAware ADS-B
Sun 03:40:48 AM 42.9320 143.6890 33° Northeast 541 623 31,000  Level FlightAware ADS-B
Sun 03:41:27 AM 43.0130 143.7610 33° Northeast 541 623 31,000  Level FlightAware ADS-B
Sun 03:42:08 AM 43.1020 143.8380 32° Northeast 537 618 31,000  Level FlightAware ADS-B
Sun 03:42:43 AM 43.1760 143.9050 33° Northeast 539 620 31,000  Level FlightAware ADS-B
Sun 03:43:28 AM 43.2680 143.9860 33° Northeast 534 615 31,000  Level FlightAware ADS-B
Sun 03:44:08 AM 43.3500 144.0600 33° Northeast 522 601 31,000  Level FlightAware ADS-B
Sun 03:45:06 AM 43.4670 144.1640 33° Northeast 516 594 31,000  Level FlightAware ADS-B
Sun 03:45:51 AM 43.5580 144.2460 33° Northeast 521 600 31,000  Level FlightAware ADS-B
Sun 03:46:31 AM 43.6390 144.3190 33° Northeast 521 600 31,000  Level FlightAware ADS-B
Sun 03:47:11 AM 43.7190 144.3920 33° Northeast 522 601 31,000  Level FlightAware ADS-B
Sun 03:47:46 AM 43.7890 144.4570 34° Northeast 522 601 31,000  Level FlightAware ADS-B
Sun 03:48:26 AM 43.8720 144.5320 33° Northeast 523 602 31,000  Level FlightAware ADS-B
Sun 03:49:11 AM 43.9610 144.6140 34° Northeast 520 598 31,000  Level FlightAware ADS-B
Sun 03:49:46 AM 44.0320 144.6780 33° Northeast 518 596 31,000  Level FlightAware ADS-B
Sun 03:50:31 AM 44.1220 144.7610 33° Northeast 518 596 31,000  Level FlightAware ADS-B
Sun 03:51:06 AM 44.1910 144.8260 34° Northeast 519 597 31,000  Level FlightAware ADS-B
Sun 03:51:56 AM 44.2920 144.9200 34° Northeast 520 598 31,000  Level FlightAware ADS-B
Sun 03:52:32 AM 44.3630 144.9860 34° Northeast 522 601 31,000  Level FlightAware ADS-B
Sun 03:53:17 AM 44.4540 145.0700 33° Northeast 524 603 31,000  Level FlightAware ADS-B
Sun 03:53:57 AM 44.5350 145.1460 34° Northeast 526 605 31,000  Level FlightAware ADS-B
Sun 03:54:37 AM 44.6160 145.2230 34° Northeast 522 601 31,000  Level FlightAware ADS-B
Sun 03:55:17 AM 44.6910 145.3160 41° Northeast 536 617 31,000  Level FlightAware ADS-B
Sun 03:56:02 AM 44.7690 145.4260 45° Northeast 538 619 31,000  Level FlightAware ADS-B
Sun 03:56:47 AM 44.8440 145.5370 46° Northeast 539 620 31,000  Level FlightAware ADS-B
Sun 03:57:27 AM 44.9160 145.6410 46° Northeast 540 621 31,000  Level FlightAware ADS-B
Sun 03:58:07 AM 44.9850 145.7430 46° Northeast 541 623 31,000  Level FlightAware ADS-B
Sun 03:58:52 AM 45.0630 145.8590 46° Northeast 538 619 31,000  Level FlightAware ADS-B
Sun 03:59:37 AM 45.1410 145.9750 46° Northeast 539 620 31,000  Level FlightAware ADS-B
Sun 04:00:12 AM 45.2020 146.0650 46° Northeast 539 620 31,000  Level FlightAware ADS-B
Sun 04:00:57 AM 45.2800 146.1820 47° Northeast 544 626 31,000  Level FlightAware ADS-B
Sun 04:01:50 AM 45.3730 146.3220 47° Northeast 545 627 31,000  Level FlightAware ADS-B
Sun 04:02:30 AM 45.4400 146.4240 47° Northeast 545 627 31,000  Level FlightAware ADS-B
Sun 04:03:10 AM 45.5100 146.5290 46° Northeast 546 628 31,000  Level FlightAware ADS-B
Sun 04:03:48 AM 45.5750 146.6290 47° Northeast 546 628 31,000  Level FlightAware ADS-B
Sun 04:04:50 AM 45.6810 146.7920 47° Northeast 546 628 31,000  Level FlightAware ADS-B
Sun 04:05:30 AM 45.7500 146.8980 47° Northeast 547 629 31,000  Level FlightAware ADS-B
Sun 04:06:15 AM 45.8260 147.0150 47° Northeast 549 632 31,000  Level FlightAware ADS-B
Sun 04:07:00 AM 45.9050 147.1350 47° Northeast 548 631 31,000  Level FlightAware ADS-B
Sun 04:07:41 AM 45.9650 147.2290 47° Northeast 549 632 31,000  Level FlightAware ADS-B
Sun 04:08:17 AM 46.0180 147.3110 47° Northeast 549 632 31,000  Level FlightAware ADS-B
Sun 04:09:05 AM 46.0890 147.4200 47° Northeast 549 632 31,000  Level FlightAware ADS-B
Sun 04:09:41 AM 46.1420 147.5020 47° Northeast 549 632 31,000  Level FlightAware ADS-B
Sun 04:10:29 AM 46.2120 147.6110 47° Northeast 549 632 31,000  Level FlightAware ADS-B
Sun 04:11:07 AM 46.2680 147.6980 47° Northeast 549 632 31,000  Level FlightAware ADS-B
Sun 04:11:47 AM 46.3270 147.7900 47° Northeast 549 632 31,000  Level FlightAware ADS-B
Sun 04:12:35 AM 46.3980 147.9000 47° Northeast 549 632 31,000  Level FlightAware ADS-B
Sun 04:13:12 AM 46.4520 147.9840 47° Northeast 549 632 31,000  Level FlightAware ADS-B
Sun 04:14:00 AM 46.5230 148.0940 47° Northeast 549 632 31,000  Level FlightAware ADS-B
Sun 04:14:36 AM 46.5760 148.1770 47° Northeast 549 632 31,000  Level FlightAware ADS-B
Sun 04:15:13 AM 46.6310 148.2620 47° Northeast 549 632 31,000  Level FlightAware ADS-B
Sun 04:16:01 AM 46.7010 148.3730 47° Northeast 549 632 31,000  Level FlightAware ADS-B
Sun 04:16:39 AM 46.7570 148.4600 47° Northeast 549 632 31,000  Level FlightAware ADS-B
Sun 04:19:00 AM 47.0355 148.6949 30° Northeast  Level FlightAware Approximate
Sun 04:20:00 AM 47.1539 148.7956 30° Northeast  Level FlightAware Approximate
Sun 04:21:00 AM 47.2722 148.8967 30° Northeast  Level FlightAware Approximate
Sun 04:22:00 AM 47.3904 148.9983 30° Northeast  Level FlightAware Approximate
Sun 04:23:00 AM 47.5086 149.1004 30° Northeast  Level FlightAware Approximate
Sun 04:24:00 AM 47.6266 149.2029 30° Northeast  Level FlightAware Approximate
Sun 04:25:00 AM 47.7445 149.3059 30° Northeast  Level FlightAware Approximate
Sun 04:26:00 AM 47.8624 149.4093 30° Northeast  Level FlightAware Approximate
Sun 04:27:00 AM 47.9801 149.5133 31° Northeast  Level FlightAware Approximate
Sun 04:28:00 AM 48.0976 149.6175 31° Northeast  Level FlightAware Approximate
Sun 04:29:00 AM 48.2150 149.7222 31° Northeast  Level FlightAware Approximate
Sun 04:30:00 AM 48.3323 149.8274 31° Northeast  Level FlightAware Approximate
Sun 04:31:00 AM 48.4495 149.9331 31° Northeast  Level FlightAware Approximate
Sun 04:32:00 AM 48.5666 150.0393 31° Northeast  Level FlightAware Approximate
Sun 04:33:00 AM 48.6837 150.1460 31° Northeast  Level FlightAware Approximate
Sun 04:34:00 AM 48.8006 150.2531 31° Northeast  Level FlightAware Approximate
Sun 04:35:00 AM 48.9174 150.3608 31° Northeast  Level FlightAware Approximate
Sun 04:36:00 AM 49.0341 150.4690 31° Northeast  Level FlightAware Approximate
Sun 04:37:00 AM 49.1507 150.5777 31° Northeast  Level FlightAware Approximate
Sun 04:38:00 AM 49.2672 150.6869 31° Northeast  Level FlightAware Approximate
Sun 04:39:00 AM 49.3836 150.7966 32° Northeast  Level FlightAware Approximate
Sun 04:40:00 AM 49.4999 150.9068 32° Northeast  Level FlightAware Approximate
Sun 04:41:00 AM 49.6161 151.0176 32° Northeast  Level FlightAware Approximate
Sun 04:42:00 AM 49.7322 151.1288 32° Northeast  Level FlightAware Approximate
Sun 04:43:00 AM 49.8482 151.2407 32° Northeast  Level FlightAware Approximate
Sun 04:44:00 AM 49.9640 151.3530 32° Northeast  Level FlightAware Approximate
Sun 04:45:00 AM 50.0798 151.4659 32° Northeast  Level FlightAware Approximate
Sun 04:46:00 AM 50.1954 151.5794 32° Northeast  Level FlightAware Approximate
Sun 04:47:00 AM 50.3100 151.6966 34° Northeast  Level FlightAware Approximate
Sun 04:48:00 AM 50.4236 151.8155 34° Northeast  Level FlightAware Approximate
Sun 04:49:00 AM 50.5371 151.9351 34° Northeast  Level FlightAware Approximate
Sun 04:50:00 AM 50.6504 152.0552 34° Northeast  Level FlightAware Approximate
Sun 04:51:00 AM 50.7636 152.1759 34° Northeast  Level FlightAware Approximate
Sun 04:52:00 AM 50.8768 152.2972 34° Northeast  Level FlightAware Approximate
Sun 04:53:00 AM 50.9897 152.4191 34° Northeast  Level FlightAware Approximate
Sun 04:54:00 AM 51.1026 152.5415 34° Northeast  Level FlightAware Approximate
Sun 04:55:00 AM 51.2153 152.6646 34° Northeast  Level FlightAware Approximate
Sun 04:56:00 AM 51.3279 152.7883 34° Northeast  Level FlightAware Approximate
Sun 04:57:00 AM 51.4403 152.9125 35° Northeast  Level FlightAware Approximate
Sun 04:58:00 AM 51.5527 153.0374 35° Northeast  Level FlightAware Approximate
Sun 04:59:00 AM 51.6649 153.1629 35° Northeast  Level FlightAware Approximate
Sun 05:00:00 AM 51.7769 153.2891 35° Northeast  Level FlightAware Approximate
Sun 05:01:00 AM 51.8889 153.4158 35° Northeast  Level FlightAware Approximate
Sun 05:02:00 AM 52.0006 153.5432 35° Northeast  Level FlightAware Approximate
Sun 05:03:00 AM 52.1123 153.6712 35° Northeast  Level FlightAware Approximate
Sun 05:04:00 AM 52.2238 153.7999 35° Northeast  Level FlightAware Approximate
Sun 05:05:00 AM 52.3352 153.9292 35° Northeast  Level FlightAware Approximate
Sun 05:06:00 AM 52.4464 154.0592 35° Northeast  Level FlightAware Approximate
Sun 05:07:00 AM 52.5575 154.1898 36° Northeast  Level FlightAware Approximate
Sun 05:08:00 AM 52.6684 154.3211 36° Northeast  Level FlightAware Approximate
Sun 05:09:00 AM 52.7792 154.4531 36° Northeast  Level FlightAware Approximate
Sun 05:10:00 AM 52.8899 154.5857 36° Northeast  Level FlightAware Approximate
Sun 05:11:00 AM 53.0004 154.7190 36° Northeast  Level FlightAware Approximate
Sun 05:12:00 AM 53.1107 154.8530 36° Northeast  Level FlightAware Approximate
Sun 05:13:00 AM 53.2209 154.9877 36° Northeast  Level FlightAware Approximate
Sun 05:14:00 AM 53.3310 155.1231 36° Northeast  Level FlightAware Approximate
Sun 05:15:00 AM 53.4408 155.2592 36° Northeast  Level FlightAware Approximate
Sun 05:16:00 AM 53.5588 155.4028 36° Northeast  Level FlightAware Approximate
Sun 05:17:00 AM 53.6767 155.5472 36° Northeast  Level FlightAware Approximate
Sun 05:18:00 AM 53.7943 155.6924 36° Northeast  Level FlightAware Approximate
Sun 05:19:00 AM 53.9118 155.8384 36° Northeast  Level FlightAware Approximate
Sun 05:20:00 AM 54.0291 155.9853 36° Northeast  Level FlightAware Approximate
Sun 05:21:00 AM 54.1461 156.1332 37° Northeast  Level FlightAware Approximate
Sun 05:22:00 AM 54.2621 156.2839 37° Northeast  Level FlightAware Approximate
Sun 05:23:00 AM 54.3779 156.4355 37° Northeast  Level FlightAware Approximate
Sun 05:24:00 AM 54.4935 156.5879 37° Northeast  Level FlightAware Approximate
Sun 05:25:00 AM 54.6089 156.7411 38° Northeast  Level FlightAware Approximate
Sun 05:26:00 AM 54.7241 156.8953 38° Northeast  Level FlightAware Approximate
Sun 05:27:00 AM 54.8391 157.0503 38° Northeast  Level FlightAware Approximate
Sun 05:28:00 AM 54.9540 157.2062 38° Northeast  Level FlightAware Approximate
Sun 05:29:00 AM 55.0686 157.3630 38° Northeast  Level FlightAware Approximate
Sun 05:30:00 AM 55.1830 157.5207 38° Northeast  Level FlightAware Approximate
Sun 05:31:00 AM 55.2972 157.6793 38° Northeast  Level FlightAware Approximate
Sun 05:32:00 AM 55.4112 157.8388 38° Northeast  Level FlightAware Approximate
Sun 05:33:00 AM 55.5250 157.9992 39° Northeast  Level FlightAware Approximate
Sun 05:34:00 AM 55.6334 158.1531 39° Northeast  Level FlightAware Approximate
Sun 05:35:00 AM 55.7415 158.3078 39° Northeast  Level FlightAware Approximate
Sun 05:36:00 AM 55.8495 158.4634 39° Northeast  Level FlightAware Approximate
Sun 05:37:00 AM 55.9572 158.6199 39° Northeast  Level FlightAware Approximate
Sun 05:38:00 AM 56.0648 158.7772 39° Northeast  Level FlightAware Approximate
Sun 05:39:00 AM 56.1721 158.9354 39° Northeast  Level FlightAware Approximate
Sun 05:40:00 AM 56.2793 159.0945 39° Northeast  Level FlightAware Approximate
Sun 05:41:00 AM 56.3862 159.2545 40° Northeast  Level FlightAware Approximate
Sun 05:42:00 AM 56.4929 159.4154 40° Northeast  Level FlightAware Approximate
Sun 05:43:00 AM 56.5995 159.5772 40° Northeast  Level FlightAware Approximate
Sun 05:44:00 AM 56.7058 159.7399 40° Northeast  Level FlightAware Approximate
Sun 05:45:00 AM 56.8119 159.9036 40° Northeast  Level FlightAware Approximate
Sun 05:46:00 AM 56.9178 160.0681 40° Northeast  Level FlightAware Approximate
Sun 05:47:00 AM 57.0234 160.2336 40° Northeast  Level FlightAware Approximate
Sun 05:48:00 AM 57.1289 160.4001 41° Northeast  Level FlightAware Approximate
Sun 05:49:00 AM 57.2341 160.5675 41° Northeast  Level FlightAware Approximate
Sun 05:50:00 AM 57.3391 160.7358 41° Northeast  Level FlightAware Approximate
Sun 05:51:00 AM 57.4439 160.9051 41° Northeast  Level FlightAware Approximate
Sun 05:52:00 AM 57.5485 161.0754 41° Northeast  Level FlightAware Approximate
Sun 05:53:00 AM 57.6528 161.2467 41° Northeast  Level FlightAware Approximate
Sun 05:54:00 AM 57.7569 161.4189 41° Northeast  Level FlightAware Approximate
Sun 05:55:00 AM 57.8607 161.5921 42° Northeast  Level FlightAware Approximate
Sun 05:56:00 AM 57.9643 161.7664 42° Northeast  Level FlightAware Approximate
Sun 05:57:00 AM 58.0677 161.9417 42° Northeast  Level FlightAware Approximate
Sun 05:58:00 AM 58.1708 162.1179 42° Northeast  Level FlightAware Approximate
Sun 05:59:00 AM 58.2737 162.2952 42° Northeast  Level FlightAware Approximate
Sun 06:00:00 AM 58.3764 162.4736 42° Northeast  Level FlightAware Approximate
Sun 06:01:00 AM 58.4787 162.6529 42° Northeast  Level FlightAware Approximate
Sun 06:02:00 AM 58.5809 162.8333 43° Northeast  Level FlightAware Approximate
Sun 06:03:00 AM 58.6828 163.0148 43° Northeast  Level FlightAware Approximate
Sun 06:04:00 AM 58.7844 163.1973 43° Northeast  Level FlightAware Approximate
Sun 06:05:00 AM 58.8858 163.3809 43° Northeast  Level FlightAware Approximate
Sun 06:06:00 AM 58.9869 163.5656 43° Northeast  Level FlightAware Approximate
Sun 06:07:00 AM 59.0877 163.7514 43° Northeast  Level FlightAware Approximate
Sun 06:08:00 AM 59.1883 163.9382 44° Northeast  Level FlightAware Approximate
Sun 06:09:00 AM 59.2886 164.1262 44° Northeast  Level FlightAware Approximate
Sun 06:10:00 AM 59.3887 164.3153 44° Northeast  Level FlightAware Approximate
Sun 06:11:00 AM 59.4884 164.5054 44° Northeast  Level FlightAware Approximate
Sun 06:12:00 AM 59.5879 164.6968 44° Northeast  Level FlightAware Approximate
Sun 06:13:00 AM 59.6871 164.8892 44° Northeast  Level FlightAware Approximate
Sun 06:14:00 AM 59.7860 165.0828 45° Northeast  Level FlightAware Approximate
Sun 06:15:00 AM 59.8847 165.2775 45° Northeast  Level FlightAware Approximate
Sun 06:15:44 AM 56.4333 172.8167 60° Northeast 538 619 31,000  Level Anchorage Center
Sun 06:16:00 AM 59.9830 165.4734 45° Northeast  Level FlightAware Approximate
Sun 06:17:00 AM 60.0810 165.6705 45° Northeast  Level FlightAware Approximate
Sun 06:18:00 AM 60.1788 165.8687 45° Northeast  Level FlightAware Approximate
Sun 06:19:00 AM 60.2763 166.0682 45° Northeast  Level FlightAware Approximate
Sun 06:20:00 AM 60.3734 166.2688 46° Northeast  Level FlightAware Approximate
Sun 06:21:00 AM 60.4703 166.4706 46° Northeast  Level FlightAware Approximate
Sun 06:22:00 AM 57.1560 175.1938 62° Northeast 538 619 31,000  Level FlightAware Transoceanic
Sun 06:23:00 AM 57.2257 175.4365 62° Northeast 538 619 31,000  Level FlightAware Transoceanic
Sun 06:24:00 AM 57.2950 175.6802 62° Northeast 538 619 31,000  Level FlightAware Transoceanic
Sun 06:25:00 AM 57.3638 175.9247 63° Northeast 538 619 31,000  Level FlightAware Transoceanic
Sun 06:26:00 AM 57.4322 176.1703 63° Northeast 538 619 31,000  Level FlightAware Transoceanic
Sun 06:27:00 AM 57.5000 176.4167 58° Northeast 538 619 31,000  Level FlightAware Transoceanic
Sun 06:28:00 AM 57.5830 176.6640 58° Northeast 538 619 31,000  Level FlightAware Transoceanic
Sun 06:29:00 AM 57.6655 176.9125 58° Northeast 538 619 31,000  Level FlightAware Transoceanic
Sun 06:30:00 AM 57.7475 177.1621 59° Northeast 538 619 31,000  Level FlightAware Transoceanic
Sun 06:31:00 AM 57.8290 177.4128 59° Northeast 538 619 31,000  Level FlightAware Transoceanic
Sun 06:32:00 AM 57.9100 177.6646 59° Northeast 538 619 31,000  Level FlightAware Transoceanic
Sun 06:33:00 AM 57.9906 177.9176 59° Northeast 538 619 31,000  Level FlightAware Transoceanic
Sun 06:34:00 AM 58.0706 178.1718 59° Northeast 538 619 31,000  Level FlightAware Transoceanic
Sun 06:35:00 AM 58.1501 178.4270 60° Northeast 538 619 31,000  Level FlightAware Transoceanic
Sun 06:36:00 AM 58.2291 178.6834 60° Northeast 538 619 31,000  Level FlightAware Transoceanic
Sun 06:37:00 AM 58.3076 178.9410 60° Northeast 538 619 31,000  Level FlightAware Transoceanic
Sun 06:38:00 AM 58.3856 179.1997 60° Northeast 538 619 31,000  Level FlightAware Transoceanic
Sun 06:39:00 AM 58.4630 179.4595 60° Northeast 538 619 31,000  Level FlightAware Transoceanic
Sun 06:40:00 AM 58.5399 179.7205 61° Northeast 538 619 31,000  Level FlightAware Transoceanic
Sun 06:41:00 AM 58.6163 179.9826 61° Northeast 538 619 31,000  Level FlightAware Transoceanic
Sun 06:42:00 AM 58.6921 -179.7542 61° Northeast 538 619 31,000  Level FlightAware Transoceanic
Sun 06:43:00 AM 58.7674 -179.4897 61° Northeast 538 619 31,000  Level FlightAware Transoceanic
Sun 06:44:00 AM 58.8422 -179.2242 62° Northeast 538 619 31,000  Level FlightAware Transoceanic
Sun 06:45:00 AM 58.9164 -178.9575 62° Northeast 538 619 31,000  Level FlightAware Transoceanic
Sun 06:46:00 AM 58.9901 -178.6897 62° Northeast 538 619 31,000  Level FlightAware Transoceanic
Sun 06:47:00 AM 59.0632 -178.4207 62° Northeast 538 619 31,000  Level FlightAware Transoceanic
Sun 06:48:00 AM 59.1357 -178.1506 63° Northeast 538 619 31,000  Level FlightAware Transoceanic
Sun 06:49:00 AM 59.2077 -177.8793 63° Northeast 538 619 31,000  Level FlightAware Transoceanic
Sun 06:50:00 AM 59.2791 -177.6069 63° Northeast 538 619 31,000 198 Level FlightAware Transoceanic
Sun 06:51:00 AM 59.3557 -177.3797 56° Northeast  Level Estimated
Sun 06:52:00 AM 59.4319 -177.1515 57° Northeast  Level Estimated
Sun 06:53:00 AM 59.5077 -176.9223 57° Northeast  Level Estimated
Sun 06:54:00 AM 59.5831 -176.6920 57° Northeast  Level Estimated
Sun 06:55:00 AM 59.6581 -176.4608 57° Northeast  Level Estimated
Sun 06:56:00 AM 59.7327 -176.2284 57° Northeast  Level Estimated
Sun 06:57:00 AM 59.8068 -175.9951 58° Northeast  Level Estimated
Sun 06:58:00 AM 59.8806 -175.7607 58° Northeast  Level Estimated
Sun 06:59:00 AM 59.9539 -175.5253 58° Northeast  Level Estimated
Sun 06:59:05 AM 59.9000 -175.1167 59° Northeast 550 633 33,000  Level Anchorage Center
Sun 07:00:00 AM 60.0268 -175.2888 58° Northeast  Level Estimated
Sun 07:01:00 AM 60.0993 -175.0513 58° Northeast  Level Estimated
Sun 07:01:05 AM 60.0333 -174.5500 65° Northeast 570 656 33,000  Level Anchorage Center
Sun 07:02:00 AM 60.1714 -174.8127 59° Northeast  Level Estimated
Sun 07:02:05 AM 60.1000 -174.2667 65° Northeast 550 633 33,000  Level Anchorage Center
Sun 07:03:00 AM 60.2430 -174.5731 59° Northeast  Level Estimated
Sun 07:03:05 AM 60.1667 -173.9667 66° East 560 644 33,000  Level Anchorage Center
Sun 07:04:00 AM 60.3142 -174.3325 59° Northeast  Level Estimated
Sun 07:04:05 AM 60.2333 -173.7000 63° Northeast 540 621 33,000  Level Anchorage Center
Sun 07:05:05 AM 60.3000 -173.4000 66° East 560 644 33,000  Level Anchorage Center
Sun 07:06:05 AM 60.3500 -173.1333 69° East 540 621 33,000  Level Anchorage Center
Sun 07:07:05 AM 60.4167 -172.8333 66° East 560 644 33,000  Level Anchorage Center
Sun 07:08:05 AM 60.4833 -172.5167 67° East 570 656 33,000  Level Anchorage Center
Sun 07:09:06 AM 60.5333 -172.2500 69° East 560 644 33,000  Level Anchorage Center
Sun 07:10:06 AM 60.6000 -171.9500 66° East 550 633 33,000  Level Anchorage Center
Sun 07:11:06 AM 60.6500 -171.6667 70° East 550 633 33,000  Level Anchorage Center
Sun 07:12:06 AM 60.7167 -171.3833 64° Northeast 550 633 33,000  Level Anchorage Center
Sun 07:13:06 AM 60.7667 -171.1000 70° East 540 621 33,000  Level Anchorage Center
Sun 07:14:06 AM 60.8333 -170.8000 65° Northeast 540 621 33,000  Level Anchorage Center
Sun 07:15:06 AM 60.8833 -170.5167 70° East 540 621 33,000  Level Anchorage Center
Sun 07:16:06 AM 60.9333 -170.2333 70° East 530 610 33,000  Level Anchorage Center
Sun 07:17:06 AM 61.0000 -169.9333 65° Northeast 540 621 33,000  Level Anchorage Center
Sun 07:18:06 AM 61.0500 -169.6500 70° East 540 621 33,000  Level Anchorage Center
Sun 07:19:06 AM 61.1000 -169.3667 70° East 530 610 33,000  Level Anchorage Center
Sun 07:20:06 AM 61.1500 -169.0833 70° East 520 598 33,000  Level Anchorage Center
Sun 07:21:06 AM 61.2000 -168.8000 70° East 510 587 33,000  Level Anchorage Center
Sun 07:22:06 AM 61.2500 -168.5167 70° East 520 598 33,000  Level Anchorage Center
Sun 07:23:06 AM 61.3000 -168.2333 70° East 530 610 33,000  Level Anchorage Center
Sun 07:24:06 AM 61.3500 -167.9500 70° East 510 587 33,000 198 Level Anchorage Center
Sun 07:25:07 AM 61.4000 -167.6667 70° East 510 587 33,400 694 Climbing Anchorage Center
Sun 07:26:07 AM 61.4500 -167.3833 70° East 510 587 34,400 800 Climbing Anchorage Center
Sun 07:27:07 AM 61.4833 -167.1000 76° East 500 575 35,000 300 Climbing Anchorage Center
Sun 07:28:07 AM 61.5333 -166.8167 70° East 510 587 35,000  Level Anchorage Center
Sun 07:29:07 AM 61.5833 -166.5333 70° East 500 575 35,000  Level Anchorage Center
Sun 07:30:03 AM 61.6167 -166.2500 76° East 500 575 35,000  Level Anchorage Center
Sun 07:31:04 AM 61.6500 -166.0167 73° East 500 575 35,000  Level Anchorage Center
Sun 07:32:04 AM 61.7000 -165.7167 71° East 530 610 35,000  Level Anchorage Center
Sun 07:33:04 AM 61.7500 -165.3833 72° East 530 610 35,000  Level Anchorage Center
Sun 07:34:05 AM 61.8000 -165.0833 70° East 510 587 35,000  Level Anchorage Center
Sun 07:35:05 AM 61.8500 -164.8000 69° East 520 598 35,000  Level Anchorage Center
Sun 07:36:05 AM 61.8833 -164.5000 77° East 520 598 35,000  Level Anchorage Center
Sun 07:37:05 AM 61.9333 -164.2000 70° East 520 598 35,000  Level Anchorage Center
Sun 07:38:06 AM 61.9667 -163.9000 77° East 520 598 35,000  Level Anchorage Center
Sun 07:39:06 AM 62.0000 -163.6167 76° East 510 587 35,000  Level Anchorage Center
Sun 07:40:06 AM 62.0500 -163.3167 70° East 510 587 35,000  Level Anchorage Center
Sun 07:41:07 AM 62.0833 -163.0167 77° East 530 610 35,000  Level Anchorage Center
Sun 07:42:07 AM 62.1333 -162.7167 70° East 530 610 35,000  Level Anchorage Center
Sun 07:43:07 AM 62.1833 -162.4167 70° East 530 610 35,000  Level Anchorage Center
Sun 07:44:08 AM 62.2500 -162.1333 63° Northeast 520 598 35,000  Level Anchorage Center
Sun 07:45:08 AM 62.3000 -161.8500 69° East 520 598 35,000  Level Anchorage Center
Sun 07:46:08 AM 62.3667 -161.5667 63° Northeast 510 587 35,000  Level Anchorage Center
Sun 07:47:09 AM 62.4333 -161.2833 63° Northeast 510 587 35,000  Level Anchorage Center
Sun 07:48:09 AM 62.4833 -160.9833 70° East 520 598 35,000  Level Anchorage Center
Sun 07:49:09 AM 62.5500 -160.7167 61° Northeast 510 587 35,000  Level Anchorage Center
Sun 07:50:10 AM 62.6000 -160.4333 69° East 510 587 35,000  Level Anchorage Center
Sun 07:51:10 AM 62.6667 -160.1500 63° Northeast 500 575 35,000  Level Anchorage Center
Sun 07:52:11 AM 62.7167 -159.8667 69° East 510 587 35,000  Level Anchorage Center
Sun 07:53:11 AM 62.7833 -159.5833 63° Northeast 500 575 35,000  Level Anchorage Center
Sun 07:54:11 AM 62.8333 -159.3000 69° East 510 587 35,000  Level Anchorage Center
Sun 07:55:12 AM 62.8833 -159.0000 70° East 510 587 35,000  Level Anchorage Center
Sun 07:56:12 AM 62.9500 -158.7167 63° Northeast 510 587 35,000  Level Anchorage Center
Sun 07:57:12 AM 63.0000 -158.4333 69° East 510 587 35,000  Level Anchorage Center
Sun 07:58:13 AM 63.0500 -158.1333 70° East 510 587 35,000  Level Anchorage Center
Sun 07:59:13 AM 63.1000 -157.8500 69° East 500 575 35,000  Level Anchorage Center
Sun 08:00:13 AM 63.1500 -157.5500 70° East 510 587 35,000  Level Anchorage Center
Sun 08:01:14 AM 63.2000 -157.2667 69° East 500 575 35,000  Level Anchorage Center
Sun 08:02:14 AM 63.2667 -156.9667 64° Northeast 500 575 35,000  Level Anchorage Center
Sun 08:03:14 AM 63.3167 -156.6833 68° East 500 575 35,000  Level Anchorage Center
Sun 08:04:15 AM 63.3667 -156.3833 69° East 500 575 35,000  Level Anchorage Center
Sun 08:05:15 AM 63.4000 -156.0833 76° East 500 575 35,000  Level Anchorage Center
Sun 08:06:16 AM 63.4500 -155.7833 69° East 500 575 35,000  Level Anchorage Center
Sun 08:07:16 AM 63.5000 -155.4833 69° East 500 575 35,000  Level Anchorage Center
Sun 08:08:16 AM 63.5500 -155.2000 68° East 500 575 35,000  Level Anchorage Center
Sun 08:09:17 AM 63.6000 -154.9000 69° East 500 575 35,000  Level Anchorage Center
Sun 08:15:16 AM 63.8710 -153.0690 69° East 493 567 35,000  Level FlightAware ADS-B
Sun 08:15:56 AM 63.8980 -152.8670 73° East 492 566 35,000  Level FlightAware ADS-B
Sun 08:17:19 AM 63.9500 -152.4750 73° East 492 566 35,000  Level FlightAware ADS-B
Sun 08:18:20 AM 63.9850 -152.2180 73° East 492 566 35,000  Level FlightAware ADS-B
Sun 08:18:57 AM 64.0060 -152.0620 73° East 492 566 35,000  Level FlightAware ADS-B
Sun 08:19:40 AM 64.0430 -151.7640 74° East 491 565 35,000  Level FlightAware ADS-B
Sun 08:20:41 AM 64.0770 -151.4940 74° East 489 563 35,000  Level FlightAware ADS-B
Sun 08:21:32 AM 64.1120 -151.2090 74° East 489 563 35,000  Level FlightAware ADS-B
Sun 08:22:14 AM 64.1380 -151.0000 74° East 487 560 35,000  Level FlightAware ADS-B
Sun 08:22:59 AM 64.1610 -150.8080 75° East 487 560 35,000  Level FlightAware ADS-B
Sun 08:23:42 AM 64.1890 -150.5680 75° East 486 559 35,000  Level FlightAware ADS-B
Sun 08:24:22 AM 64.2130 -150.3640 75° East 486 559 35,000  Level FlightAware ADS-B
Sun 08:24:56 AM 64.2320 -150.2000 75° East 486 559 35,000  Level FlightAware ADS-B
Sun 08:25:48 AM 64.2570 -149.9790 75° East 486 559 35,000  Level FlightAware ADS-B
Sun 08:26:24 AM 64.2750 -149.8260 75° East 486 559 35,000  Level FlightAware ADS-B
Sun 08:27:02 AM 64.3040 -149.5610 76° East 486 559 35,000  Level FlightAware ADS-B
Sun 08:27:48 AM 64.3260 -149.3630 76° East 486 559 35,000  Level FlightAware ADS-B
Sun 08:28:36 AM 64.3520 -149.1150 76° East 486 559 35,000  Level FlightAware ADS-B
Sun 08:29:12 AM 64.3680 -148.9610 76° East 486 559 35,000  Level FlightAware ADS-B
Sun 08:30:12 AM 64.3960 -148.7030 76° East 486 559 35,000  Level FlightAware ADS-B
Sun 08:30:48 AM 64.4130 -148.5490 76° East 486 559 35,000  Level FlightAware ADS-B
Sun 08:31:37 AM 64.4350 -148.3380 76° East 486 559 35,000  Level FlightAware ADS-B
Sun 08:32:13 AM 64.4520 -148.1830 76° East 486 559 35,000  Level FlightAware ADS-B
Sun 08:33:02 AM 64.4750 -147.9730 76° East 486 559 35,000  Level FlightAware ADS-B
Sun 08:33:38 AM 64.4910 -147.8180 76° East 486 559 35,000  Level FlightAware ADS-B
Sun 08:34:14 AM 64.5080 -147.6630 76° East 486 559 35,000  Level FlightAware ADS-B
Sun 08:35:26 AM 64.5410 -147.3520 76° East 486 559 35,000  Level FlightAware ADS-B
Sun 08:36:14 AM 64.5630 -147.1450 76° East 486 559 35,000  Level FlightAware ADS-B
Sun 08:36:50 AM 64.5800 -146.9890 76° East 486 559 35,000  Level FlightAware ADS-B
Sun 08:37:26 AM 64.5960 -146.8340 76° East 486 559 35,000  Level FlightAware ADS-B
Sun 08:38:27 AM 64.6333 -146.0667 76° East 490 564 35,000  Level Anchorage Center
Sun 08:39:27 AM 64.6500 -145.7667 82° East 490 564 35,000  Level Anchorage Center
Sun 08:40:28 AM 64.6833 -145.4333 77° East 490 564 35,000  Level Anchorage Center
Sun 08:41:28 AM 64.7000 -145.1333 82° East 490 564 35,000  Level Anchorage Center
Sun 08:42:28 AM 64.7333 -144.8000 77° East 490 564 35,000  Level Anchorage Center
Sun 08:43:29 AM 64.7500 -144.5000 82° East 490 564 35,000  Level Anchorage Center
Sun 08:44:29 AM 64.7833 -144.1667 77° East 490 564 35,000  Level Anchorage Center
Sun 08:45:30 AM 64.8000 -143.8667 82° East 490 564 35,000  Level Anchorage Center
Sun 08:46:30 AM 64.8167 -143.5667 82° East 500 575 35,000  Level Anchorage Center
Sun 08:47:30 AM 64.8333 -143.2500 83° East 500 575 35,000  Level Anchorage Center
Sun 08:48:31 AM 64.8667 -142.9333 76° East 490 564 35,000  Level Anchorage Center
Sun 08:49:31 AM 64.8833 -142.6000 83° East 500 575 35,000  Level Anchorage Center
Sun 08:50:31 AM 64.9000 -142.2833 83° East 490 564 35,000  Level Anchorage Center
Sun 08:51:32 AM 64.9167 -141.9667 83° East 490 564 35,000  Level Anchorage Center
Sun 08:52:32 AM 64.9333 -141.6333 83° East 500 575 35,000  Level Anchorage Center
Sun 08:54:00 AM 64.9614 -141.1035 83° East  Level FlightAware Approximate
Sun 09:01:00 AM 64.9488 -138.5551 90° East  Level FlightAware Approximate
Sun 09:02:00 AM 64.9427 -138.1913 92° East  Level FlightAware Approximate
Sun 09:03:00 AM 64.9357 -137.8277 92° East  Level FlightAware Approximate
Sun 09:04:00 AM 64.9213 -137.4706 95° East  Level FlightAware Approximate
Sun 09:05:00 AM 64.9061 -137.1138 96° East  Level FlightAware Approximate
Sun 09:06:00 AM 64.8900 -136.7574 96° East  Level FlightAware Approximate
Sun 09:07:00 AM 64.8731 -136.4015 96° East  Level FlightAware Approximate
Sun 09:08:00 AM 64.8553 -136.0461 97° East  Level FlightAware Approximate
Sun 09:09:00 AM 64.8366 -135.6911 97° East  Level FlightAware Approximate
Sun 09:10:00 AM 64.8171 -135.3366 97° East  Level FlightAware Approximate
Sun 09:11:00 AM 64.7968 -134.9826 98° East  Level FlightAware Approximate
Sun 09:12:00 AM 64.7756 -134.6292 98° East  Level FlightAware Approximate
Sun 09:13:00 AM 64.7536 -134.2764 98° East  Level FlightAware Approximate
Sun 09:14:00 AM 64.7308 -133.9241 98° East  Level FlightAware Approximate
Sun 09:15:00 AM 64.7071 -133.5724 99° East  Level FlightAware Approximate
Sun 09:16:00 AM 64.6826 -133.2214 99° East  Level FlightAware Approximate
Sun 09:17:00 AM 64.6572 -132.8710 99° East  Level FlightAware Approximate
Sun 09:18:00 AM 64.6311 -132.5213 100° East  Level FlightAware Approximate
Sun 09:19:00 AM 64.6041 -132.1723 100° East  Level FlightAware Approximate
Sun 09:20:00 AM 64.5763 -131.8239 100° East  Level FlightAware Approximate
Sun 09:21:00 AM 64.5476 -131.4763 101° East  Level FlightAware Approximate
Sun 09:22:00 AM 64.5182 -131.1295 101° East  Level FlightAware Approximate
Sun 09:23:00 AM 64.4879 -130.7833 101° East  Level FlightAware Approximate
Sun 09:24:00 AM 64.4568 -130.4380 102° East  Level FlightAware Approximate
Sun 09:25:00 AM 64.4249 -130.0934 102° East  Level FlightAware Approximate
Sun 09:26:00 AM 64.3923 -129.7497 102° East  Level FlightAware Approximate
Sun 09:27:00 AM 64.3588 -129.4068 103° East  Level FlightAware Approximate
Sun 09:28:00 AM 64.3245 -129.0647 103° East  Level FlightAware Approximate
Sun 09:29:00 AM 64.2894 -128.7235 103° East  Level FlightAware Approximate
Sun 09:30:00 AM 64.2535 -128.3832 103° East  Level FlightAware Approximate
Sun 09:31:00 AM 64.2168 -128.0437 104° East  Level FlightAware Approximate
Sun 09:32:00 AM 64.1795 -127.7059 104° East  Level FlightAware Approximate
Sun 09:33:00 AM 64.1413 -127.3689 104° East  Level FlightAware Approximate
Sun 09:34:00 AM 64.1024 -127.0329 105° East  Level FlightAware Approximate
Sun 09:35:00 AM 64.0627 -126.6979 105° East  Level FlightAware Approximate
Sun 09:36:00 AM 64.0222 -126.3638 105° East  Level FlightAware Approximate
Sun 09:37:00 AM 63.9810 -126.0306 106° East  Level FlightAware Approximate
Sun 09:38:00 AM 63.9390 -125.6985 106° East  Level FlightAware Approximate
Sun 09:39:00 AM 63.8962 -125.3674 106° East  Level FlightAware Approximate
Sun 09:40:00 AM 63.8527 -125.0373 107° East  Level FlightAware Approximate
Sun 09:41:00 AM 63.8084 -124.7082 107° East  Level FlightAware Approximate
Sun 09:42:00 AM 63.7634 -124.3802 107° East  Level FlightAware Approximate
Sun 09:43:00 AM 63.7177 -124.0532 107° East  Level FlightAware Approximate
Sun 09:44:00 AM 63.6712 -123.7272 108° East  Level FlightAware Approximate
Sun 09:45:00 AM 63.6240 -123.4024 108° East  Level FlightAware Approximate
Sun 09:46:00 AM 63.5760 -123.0786 108° East  Level FlightAware Approximate
Sun 09:47:00 AM 63.5273 -122.7560 109° East  Level FlightAware Approximate
Sun 09:48:00 AM 63.4779 -122.4344 109° East  Level FlightAware Approximate
Sun 09:49:00 AM 63.4278 -122.1140 109° East  Level FlightAware Approximate
Sun 09:50:00 AM 63.3770 -121.7946 109° East  Level FlightAware Approximate
Sun 09:50:12 AM 63.1833 -123.4000 111° Southeast 550 633 35,000  Level Edmonton Center
Sun 09:51:00 AM 63.3254 -121.4765 110° East  Level FlightAware Approximate
Sun 09:51:12 AM 63.1167 -123.0833 115° Southeast 530 610 35,000  Level Edmonton Center
Sun 09:52:00 AM 63.2732 -121.1594 110° East  Level FlightAware Approximate
Sun 09:52:12 AM 63.0333 -122.8000 123° Southeast 530 610 35,000  Level Edmonton Center
Sun 09:53:00 AM 63.2202 -120.8436 110° East  Level FlightAware Approximate
Sun 09:53:12 AM 62.9667 -122.4833 115° Southeast 530 610 35,000  Level Edmonton Center
Sun 09:54:00 AM 63.1666 -120.5288 111° Southeast  Level FlightAware Approximate
Sun 09:54:12 AM 62.9167 -122.2167 112° Southeast 530 610 35,000  Level Edmonton Center
Sun 09:55:00 AM 63.1122 -120.2153 111° Southeast  Level FlightAware Approximate
Sun 09:55:12 AM 62.8500 -121.9167 116° Southeast 530 610 35,000  Level Edmonton Center
Sun 09:56:12 AM 62.7667 -121.6000 120° Southeast 540 621 35,000  Level Edmonton Center
Sun 09:57:12 AM 62.7000 -121.3333 119° Southeast 540 621 35,000  Level Edmonton Center
Sun 09:58:12 AM 62.6500 -121.0500 111° Southeast 530 610 35,000  Level Edmonton Center
Sun 09:59:12 AM 62.5833 -120.7333 114° Southeast 530 610 35,000  Level Edmonton Center
Sun 10:00:12 AM 62.5000 -120.4667 124° Southeast 530 610 35,000  Level Edmonton Center
Sun 10:01:12 AM 62.4333 -120.1667 116° Southeast 540 621 35,000  Level Edmonton Center
Sun 10:02:12 AM 62.3667 -119.8833 117° Southeast 530 610 35,000  Level Edmonton Center
Sun 10:03:12 AM 62.2833 -119.5833 121° Southeast 530 610 35,000  Level Edmonton Center
Sun 10:04:12 AM 62.2167 -119.3167 118° Southeast 530 610 35,000  Level Edmonton Center
Sun 10:05:12 AM 62.1500 -119.0333 117° Southeast 530 610 35,000  Level Edmonton Center
Sun 10:06:12 AM 62.0833 -118.7667 118° Southeast 530 610 35,000  Level Edmonton Center
Sun 10:07:12 AM 62.0000 -118.4833 122° Southeast 530 610 35,000  Level Edmonton Center
Sun 10:08:12 AM 61.9333 -118.1833 115° Southeast 530 610 35,000  Level Edmonton Center
Sun 10:09:12 AM 61.8500 -117.9333 125° Southeast 530 610 35,000  Level Edmonton Center
Sun 10:10:12 AM 61.7833 -117.6500 116° Southeast 530 610 35,000  Level Edmonton Center
Sun 10:11:12 AM 61.7167 -117.4000 119° Southeast 530 610 35,000  Level Edmonton Center
Sun 10:12:12 AM 61.6333 -117.1167 122° Southeast 530 610 35,000  Level Edmonton Center
Sun 10:13:12 AM 61.5500 -116.8333 122° Southeast 530 610 35,000  Level Edmonton Center
Sun 10:14:12 AM 61.4667 -116.5500 122° Southeast 530 610 35,000  Level Edmonton Center
Sun 10:15:12 AM 61.4000 -116.3167 121° Southeast 530 610 35,000  Level Edmonton Center
Sun 10:16:12 AM 61.3333 -116.0333 116° Southeast 530 610 35,000  Level Edmonton Center
Sun 10:17:12 AM 61.2500 -115.7833 125° Southeast 530 610 35,000  Level Edmonton Center
Sun 10:18:12 AM 61.1667 -115.5167 123° Southeast 520 598 35,000  Level Edmonton Center
Sun 10:19:12 AM 61.0833 -115.2667 125° Southeast 520 598 35,000  Level Edmonton Center
Sun 10:20:12 AM 61.0167 -115.0000 117° Southeast 520 598 35,000  Level Edmonton Center
Sun 10:21:12 AM 60.9333 -114.7667 126° Southeast 520 598 35,000  Level Edmonton Center
Sun 10:22:12 AM 60.8500 -114.5000 123° Southeast 520 598 35,000  Level Edmonton Center
Sun 10:23:12 AM 60.7667 -114.2167 121° Southeast 520 598 35,000  Level Edmonton Center
Sun 10:24:12 AM 60.6833 -113.9833 126° Southeast 520 598 35,000  Level Edmonton Center
Sun 10:25:12 AM 60.6000 -113.7333 124° Southeast 520 598 35,000  Level Edmonton Center
Sun 10:26:12 AM 60.5167 -113.5000 126° Southeast 520 598 35,000  Level Edmonton Center
Sun 10:27:12 AM 60.4500 -113.2333 117° Southeast 520 598 35,000  Level Edmonton Center
Sun 10:28:12 AM 60.3667 -113.0000 126° Southeast 510 587 35,000  Level Edmonton Center
Sun 10:29:12 AM 60.2667 -112.7833 133° Southeast 510 587 35,000  Level Edmonton Center
Sun 10:30:12 AM 60.2000 -112.5167 117° Southeast 510 587 35,000  Level Edmonton Center
Sun 10:31:12 AM 60.1167 -112.3000 128° Southeast 510 587 35,000  Level Edmonton Center
Sun 10:32:12 AM 60.0333 -112.0667 125° Southeast 500 575 35,000  Level Edmonton Center
Sun 10:33:12 AM 59.9833 -111.7833 109° East 500 575 35,000  Level Edmonton Center
Sun 10:34:12 AM 59.9500 -111.5000 103° East 500 575 35,000  Level Edmonton Center
Sun 10:35:12 AM 59.9333 -111.2333 97° East 500 575 35,000  Level Edmonton Center
Sun 10:36:12 AM 59.8833 -110.9500 109° East 500 575 35,000  Level Edmonton Center
Sun 10:37:12 AM 59.8500 -110.6667 103° East 500 575 35,000  Level Edmonton Center
Sun 10:38:12 AM 59.8167 -110.4333 106° East 500 575 35,000  Level Edmonton Center
Sun 10:39:12 AM 59.7500 -110.1500 115° Southeast 500 575 35,000  Level Edmonton Center
Sun 10:40:12 AM 59.7000 -109.9000 112° Southeast 500 575 35,000  Level Edmonton Center
Sun 10:41:12 AM 59.6333 -109.6667 119° Southeast 500 575 35,000  Level Edmonton Center
Sun 10:42:12 AM 59.5833 -109.4167 111° Southeast 500 575 35,000  Level Edmonton Center
Sun 10:43:12 AM 59.5167 -109.1500 116° Southeast 500 575 35,000  Level Edmonton Center
Sun 10:44:12 AM 59.4500 -108.9000 118° Southeast 510 587 35,000  Level Edmonton Center
Sun 10:45:12 AM 59.4000 -108.6333 110° East 500 575 35,000  Level Edmonton Center
Sun 10:46:12 AM 59.3333 -108.3833 118° Southeast 500 575 35,000  Level Edmonton Center
Sun 10:47:12 AM 59.2833 -108.1167 110° East 510 587 35,000  Level Edmonton Center
Sun 10:48:12 AM 59.2167 -107.8833 119° Southeast 500 575 35,000  Level Edmonton Center
Sun 10:49:12 AM 59.1500 -107.6333 117° Southeast 500 575 35,000  Level Edmonton Center
Sun 10:50:12 AM 59.0833 -107.4000 119° Southeast 510 587 35,000  Level Edmonton Center
Sun 10:51:12 AM 59.0167 -107.1333 116° Southeast 510 587 35,000  Level Edmonton Center
Sun 10:52:12 AM 58.9667 -106.9000 112° Southeast 510 587 35,000  Level Edmonton Center
Sun 10:53:12 AM 58.9000 -106.6333 116° Southeast 520 598 35,000  Level Edmonton Center
Sun 10:54:12 AM 58.8167 -106.4000 125° Southeast 510 587 35,000  Level Edmonton Center
Sun 10:55:12 AM 58.7500 -106.1333 116° Southeast 520 598 35,000  Level Edmonton Center
Sun 10:56:12 AM 58.6833 -105.9000 119° Southeast 510 587 35,000  Level Edmonton Center
Sun 10:57:12 AM 58.6167 -105.6500 117° Southeast 530 610 35,000  Level Edmonton Center
Sun 10:58:12 AM 58.5500 -105.3833 116° Southeast 520 598 35,000  Level Edmonton Center
Sun 10:59:12 AM 58.4833 -105.1500 119° Southeast 520 598 35,000  Level Edmonton Center
Sun 11:00:12 AM 58.4167 -104.9000 117° Southeast 520 598 35,000  Level Edmonton Center
Sun 11:01:12 AM 58.3500 -104.6667 118° Southeast 510 587 35,000  Level Edmonton Center
Sun 11:02:12 AM 58.2667 -104.4167 122° Southeast 520 598 35,000  Level Edmonton Center
Sun 11:03:12 AM 58.1833 -104.1500 121° Southeast 520 598 35,000  Level Edmonton Center
Sun 11:04:12 AM 58.1167 -103.9333 120° Southeast 520 598 35,000  Level Edmonton Center
Sun 11:05:12 AM 58.0500 -103.6833 117° Southeast 520 598 35,000  Level Edmonton Center
Sun 11:06:12 AM 57.9833 -103.4167 115° Southeast 520 598 35,000  Level Edmonton Center
Sun 11:07:12 AM 57.9167 -103.2000 120° Southeast 520 598 35,000  Level Edmonton Center
Sun 11:08:12 AM 57.8167 -102.9500 127° Southeast 520 598 35,000  Level Edmonton Center
Sun 11:09:12 AM 57.7500 -102.7000 116° Southeast 520 598 35,000  Level Edmonton Center
Sun 11:10:12 AM 57.6833 -102.4833 120° Southeast 520 598 35,000  Level Edmonton Center
Sun 11:11:12 AM 57.6000 -102.2333 122° Southeast 520 598 35,000  Level Edmonton Center
Sun 11:12:12 AM 57.5333 -101.9833 116° Southeast 520 598 35,000  Level Edmonton Center
Sun 11:13:12 AM 57.4500 -101.7667 125° Southeast 520 598 35,000  Level Edmonton Center
Sun 11:14:12 AM 57.3833 -101.5333 118° Southeast 520 598 35,000  Level Edmonton Center
Sun 11:15:12 AM 57.2833 -101.3167 130° Southeast 520 598 35,000  Level Edmonton Center
Sun 11:16:12 AM 57.2167 -101.0667 116° Southeast 520 598 35,000  Level Edmonton Center
Sun 11:17:12 AM 57.1333 -100.8333 123° Southeast 520 598 35,000  Level Edmonton Center
Sun 11:18:12 AM 57.0667 -100.6167 119° Southeast 520 598 35,000  Level Edmonton Center
Sun 11:19:12 AM 56.9833 -100.3833 123° Southeast 520 598 35,000  Level Edmonton Center
Sun 11:20:12 AM 56.9167 -100.1667 119° Southeast 520 598 35,000  Level Edmonton Center
Sun 11:21:12 AM 56.8167 -99.9333 128° Southeast 520 598 35,000  Level Edmonton Center
Sun 11:22:12 AM 56.7333 -99.7000 123° Southeast 520 598 35,000  Level Edmonton Center
Sun 11:23:12 AM 56.6667 -99.4667 117° Southeast 520 598 35,000  Level Edmonton Center
Sun 11:24:12 AM 56.5833 -99.2667 127° Southeast 530 610 35,000  Level Edmonton Center
Sun 11:25:12 AM 56.5000 -99.0333 123° Southeast 530 610 35,000  Level Edmonton Center
Sun 11:26:12 AM 56.4167 -98.8000 123° Southeast 530 610 35,000  Level Edmonton Center
Sun 11:27:12 AM 56.3333 -98.5667 123° Southeast 540 621 35,000  Level Edmonton Center
Sun 11:28:12 AM 56.2500 -98.3333 123° Southeast 540 621 35,000  Level Edmonton Center
Sun 11:29:12 AM 56.1667 -98.1333 127° Southeast 540 621 35,000  Level Edmonton Center
Sun 11:30:12 AM 56.0667 -97.8833 126° Southeast 540 621 35,000  Level Edmonton Center
Sun 11:31:12 AM 55.9833 -97.6833 127° Southeast 540 621 35,000  Level Edmonton Center
Sun 11:32:12 AM 55.9000 -97.4500 122° Southeast 540 621 35,000  Level Edmonton Center
Sun 11:33:12 AM 55.8167 -97.2000 121° Southeast 540 621 35,000  Level Edmonton Center
Sun 11:34:12 AM 55.7167 -97.0000 132° Southeast 540 621 35,000  Level Edmonton Center
Sun 11:35:12 AM 55.6333 -96.7833 124° Southeast 540 621 35,000  Level Edmonton Center
Sun 11:36:12 AM 55.5500 -96.5500 122° Southeast 540 621 35,000  Level Edmonton Center
Sun 11:37:12 AM 55.4667 -96.3333 124° Southeast 540 621 35,000  Level Edmonton Center
Sun 11:37:59 AM 55.4167 -96.2000 123° Southeast 550 633 35,000  Level Winnipeg Center
Sun 11:38:59 AM 55.3167 -96.0000 131° Southeast 550 633 35,000 300 Level Winnipeg Center
Sun 11:39:59 AM 55.2333 -95.7667 122° Southeast 550 633 35,600 900 Climbing Winnipeg Center
Sun 11:40:59 AM 55.1500 -95.5333 122° Southeast 550 633 36,800 700 Climbing Winnipeg Center
Sun 11:41:59 AM 55.0333 -95.3333 135° Southeast 550 633 37,000 100 Climbing Winnipeg Center
Sun 11:42:59 AM 54.9500 -95.1333 126° Southeast 550 633 37,000  Level Winnipeg Center
Sun 11:43:59 AM 54.8667 -94.9000 122° Southeast 550 633 37,000  Level Winnipeg Center
Sun 11:44:59 AM 54.7833 -94.7000 126° Southeast 550 633 37,000  Level Winnipeg Center
Sun 11:45:59 AM 54.6667 -94.4667 131° Southeast 550 633 37,000  Level Winnipeg Center
Sun 11:46:59 AM 54.5833 -94.2833 128° Southeast 550 633 37,000  Level Winnipeg Center
Sun 11:47:59 AM 54.5000 -94.0500 122° Southeast 550 633 37,000  Level Winnipeg Center
Sun 11:48:59 AM 54.3833 -93.8500 135° Southeast 550 633 37,000  Level Winnipeg Center
Sun 11:49:59 AM 54.3000 -93.6667 128° Southeast 550 633 37,000  Level Winnipeg Center
Sun 11:50:59 AM 54.2167 -93.4333 121° Southeast 550 633 37,000  Level Winnipeg Center
Sun 11:51:59 AM 54.1167 -93.2500 133° Southeast 550 633 37,000  Level Winnipeg Center
Sun 11:52:59 AM 54.0167 -93.0333 128° Southeast 550 633 37,000  Level Winnipeg Center
Sun 11:53:59 AM 53.9167 -92.8333 130° Southeast 550 633 37,000  Level Winnipeg Center
Sun 11:54:59 AM 53.8167 -92.6167 128° Southeast 550 633 37,000  Level Winnipeg Center
Sun 11:55:59 AM 53.7333 -92.4333 127° Southeast 550 633 37,000  Level Winnipeg Center
Sun 11:56:59 AM 53.6333 -92.2167 128° Southeast 550 633 37,000  Level Winnipeg Center
Sun 11:57:59 AM 53.5333 -92.0000 128° Southeast 550 633 37,000  Level Winnipeg Center
Sun 11:58:59 AM 53.4333 -91.8167 132° Southeast 560 644 37,000  Level Winnipeg Center
Sun 11:59:59 AM 53.3333 -91.6000 128° Southeast 560 644 37,000  Level Winnipeg Center
Sun 12:00:59 PM 53.2500 -91.4167 127° Southeast 550 633 37,000  Level Winnipeg Center
Sun 12:01:59 PM 53.1333 -91.2167 134° Southeast 550 633 37,000  Level Winnipeg Center
Sun 12:02:59 PM 53.0500 -91.0333 127° Southeast 550 633 37,000  Level Winnipeg Center
Sun 12:03:59 PM 52.9333 -90.8167 132° Southeast 550 633 37,000  Level Winnipeg Center
Sun 12:04:59 PM 52.8333 -90.6333 132° Southeast 550 633 37,000  Level Winnipeg Center
Sun 12:05:59 PM 52.7500 -90.4333 124° Southeast 550 633 37,000  Level Winnipeg Center
Sun 12:06:59 PM 52.6500 -90.2500 132° Southeast 550 633 37,000  Level Winnipeg Center
Sun 12:07:59 PM 52.5333 -90.0500 134° Southeast 550 633 37,000  Level Winnipeg Center
Sun 12:08:59 PM 52.4500 -89.8667 127° Southeast 550 633 37,000  Level Winnipeg Center
Sun 12:09:59 PM 52.3500 -89.6667 129° Southeast 550 633 37,000  Level Winnipeg Center
Sun 12:10:59 PM 52.2500 -89.4833 132° Southeast 550 633 37,000  Level Winnipeg Center
Sun 12:11:59 PM 52.1333 -89.2833 133° Southeast 550 633 37,000  Level Winnipeg Center
Sun 12:12:59 PM 52.0333 -89.1167 134° Southeast 550 633 37,000  Level Winnipeg Center
Sun 12:13:59 PM 51.9500 -88.9333 126° Southeast 550 633 37,000  Level Winnipeg Center
Sun 12:14:59 PM 51.8333 -88.7500 136° Southeast 550 633 37,000  Level Winnipeg Center
Sun 12:15:59 PM 51.7333 -88.5667 131° Southeast 550 633 37,000  Level Winnipeg Center
Sun 12:16:59 PM 51.6333 -88.3667 129° Southeast 550 633 37,000  Level Winnipeg Center
Sun 12:17:59 PM 51.5167 -88.1833 136° Southeast 550 633 37,000  Level Winnipeg Center
Sun 12:18:59 PM 51.4167 -87.9833 129° Southeast 550 633 37,000  Level Winnipeg Center
Sun 12:19:59 PM 51.3167 -87.8167 134° Southeast 550 633 37,000  Level Winnipeg Center
Sun 12:20:59 PM 51.2000 -87.6167 133° Southeast 550 633 37,000  Level Winnipeg Center
Sun 12:21:59 PM 51.1167 -87.4500 128° Southeast 550 633 37,000  Level Winnipeg Center
Sun 12:22:59 PM 51.0167 -87.2833 134° Southeast 550 633 37,000  Level Winnipeg Center
Sun 12:23:59 PM 50.9000 -87.1000 135° Southeast 560 644 37,000  Level Winnipeg Center
Sun 12:24:59 PM 50.8000 -86.9333 133° Southeast 560 644 37,000  Level Winnipeg Center
Sun 12:25:59 PM 50.6833 -86.7500 135° Southeast 560 644 37,000  Level Winnipeg Center
Sun 12:26:59 PM 50.5833 -86.5833 133° Southeast 560 644 37,000  Level Winnipeg Center
Sun 12:27:59 PM 50.4833 -86.4000 131° Southeast 570 656 37,000  Level Winnipeg Center
Sun 12:28:59 PM 50.3500 -86.2167 139° Southeast 560 644 37,000  Level Winnipeg Center
Sun 12:29:59 PM 50.2667 -86.0500 128° Southeast 560 644 37,000  Level Winnipeg Center
Sun 12:30:59 PM 50.1333 -85.8667 139° Southeast 560 644 37,000  Level Winnipeg Center
Sun 12:31:59 PM 50.0333 -85.6833 130° Southeast 560 644 37,000  Level Winnipeg Center
Sun 12:32:59 PM 49.9333 -85.5167 133° Southeast 560 644 37,000  Level Winnipeg Center
Sun 12:33:58 PM 49.8167 -85.3500 137° Southeast 560 644 37,000  Level Winnipeg Center
Sun 12:34:58 PM 49.7167 -85.1833 133° Southeast 560 644 37,000  Level Winnipeg Center
Sun 12:35:58 PM 49.6167 -85.0333 136° Southeast 560 644 37,000  Level Winnipeg Center
Sun 12:36:58 PM 49.5000 -84.8500 134° Southeast 560 644 37,000  Level Winnipeg Center
Sun 12:37:58 PM 49.4000 -84.7000 136° Southeast 550 633 37,000 312 Level Winnipeg Center
Sun 12:43:23 PM 48.8230 -83.8520 136° Southeast 546 628 39,000 320 Climbing FlightAware ADS-B
Sun 12:44:13 PM 48.7470 -83.7370 135° Southeast 546 628 39,000  Level FlightAware ADS-B
Sun 12:44:57 PM 48.6810 -83.6350 134° Southeast 546 628 39,000  Level FlightAware ADS-B
Sun 12:45:35 PM 48.6230 -83.5480 135° Southeast 546 628 39,000  Level FlightAware ADS-B
Sun 12:46:11 PM 48.5680 -83.4650 135° Southeast 546 628 39,000  Level FlightAware ADS-B
Sun 12:46:48 PM 48.5120 -83.3810 135° Southeast 546 628 39,000  Level FlightAware ADS-B
Sun 12:47:36 PM 48.4390 -83.2710 135° Southeast 546 628 39,000  Level FlightAware ADS-B
Sun 12:48:12 PM 48.3850 -83.1880 134° Southeast 546 628 39,000  Level FlightAware ADS-B
Sun 12:49:00 PM 48.3120 -83.0790 135° Southeast 546 628 39,000  Level FlightAware ADS-B
Sun 12:49:35 PM 48.1600 -82.8890 140° Southeast 526 605 39,000  Level FlightAware ADS-B
Sun 12:50:13 PM 48.1000 -82.8030 136° Southeast 526 605 39,000  Level FlightAware ADS-B
Sun 12:50:59 PM 48.0320 -82.7040 136° Southeast 526 605 39,000  Level FlightAware ADS-B
Sun 12:51:35 PM 47.9780 -82.6270 136° Southeast 526 605 39,000  Level FlightAware ADS-B
Sun 12:52:24 PM 47.9050 -82.5220 136° Southeast 526 605 39,000  Level FlightAware ADS-B
Sun 12:53:02 PM 47.7910 -82.3690 138° Southeast 527 606 39,000  Level FlightAware ADS-B
Sun 12:53:56 PM 47.7010 -82.2440 137° Southeast 523 602 39,000  Level FlightAware ADS-B
Sun 12:54:35 PM 47.6300 -82.1440 136° Southeast 520 598 39,000  Level FlightAware ADS-B
Sun 12:55:19 PM 47.5520 -82.0400 138° Southeast 517 595 39,000  Level FlightAware ADS-B
Sun 12:55:59 PM 47.4810 -81.9410 137° Southeast 517 595 39,000  Level FlightAware ADS-B
Sun 12:56:40 PM 47.4080 -81.8400 137° Southeast 517 595 39,000  Level FlightAware ADS-B
Sun 12:57:20 PM 47.3370 -81.7440 137° Southeast 520 598 39,000  Level FlightAware ADS-B
Sun 12:58:05 PM 47.2590 -81.6380 137° Southeast 520 598 39,000  Level FlightAware ADS-B
Sun 12:58:49 PM 47.1800 -81.5330 138° Southeast 523 602 39,000  Level FlightAware ADS-B
Sun 12:59:29 PM 47.1100 -81.4370 137° Southeast 523 602 39,000  Level FlightAware ADS-B
Sun 01:00:09 PM 47.0370 -81.3390 138° Southeast 523 602 39,000  Level FlightAware ADS-B
Sun 01:00:53 PM 46.9580 -81.2340 138° Southeast 520 598 39,000  Level FlightAware ADS-B
Sun 01:01:33 PM 46.8890 -81.1420 138° Southeast 516 594 39,000  Level FlightAware ADS-B
Sun 01:02:19 PM 46.8060 -81.0320 138° Southeast 515 593 39,000  Level FlightAware ADS-B
Sun 01:02:59 PM 46.7370 -80.9410 138° Southeast 515 593 39,000  Level FlightAware ADS-B
Sun 01:03:35 PM 46.6730 -80.8550 137° Southeast 514 592 39,000  Level FlightAware ADS-B
Sun 01:04:15 PM 46.6020 -80.7620 138° Southeast 516 594 39,000  Level FlightAware ADS-B
Sun 01:04:59 PM 46.5290 -80.6570 135° Southeast 514 592 39,000  Level FlightAware ADS-B
Sun 01:05:31 PM 46.4740 -80.5760 135° Southeast 512 589 39,000  Level FlightAware ADS-B
Sun 01:06:17 PM 46.3970 -80.4650 135° Southeast 511 588 39,000  Level FlightAware ADS-B
Sun 01:06:54 PM 46.3360 -80.3780 135° Southeast 510 587 39,000  Level FlightAware ADS-B
Sun 01:07:37 PM 46.2650 -80.2760 135° Southeast 509 586 39,000  Level FlightAware ADS-B
Sun 01:08:23 PM 46.1850 -80.1640 136° Southeast 509 586 39,000  Level FlightAware ADS-B
Sun 01:09:03 PM 46.1190 -80.0720 136° Southeast 509 586 39,000  Level FlightAware ADS-B
Sun 01:09:47 PM 46.0450 -79.9680 136° Southeast 508 585 39,000  Level FlightAware ADS-B
Sun 01:10:19 PM 45.9900 -79.8900 135° Southeast 508 585 39,000  Level FlightAware ADS-B
Sun 01:10:55 PM 45.9320 -79.8030 134° Southeast 508 585 39,000  Level FlightAware ADS-B
Sun 01:11:43 PM 45.8540 -79.6860 134° Southeast 508 585 39,000  Level FlightAware ADS-B
Sun 01:14:00 PM 45.7458 -79.5365 136° Southeast  Level FlightAware Approximate
Sun 01:15:00 PM 45.6984 -79.4712 136° Southeast  Level FlightAware Approximate
Sun 01:16:00 PM 45.6509 -79.4060 136° Southeast  Level FlightAware Approximate
Sun 01:17:00 PM 45.6034 -79.3410 136° Southeast  Level FlightAware Approximate
Sun 01:18:00 PM 45.5559 -79.2760 136° Southeast  Level FlightAware Approximate
Sun 01:19:00 PM 45.5083 -79.2112 136° Southeast  Level FlightAware Approximate
Sun 01:20:00 PM 45.4607 -79.1464 136° Southeast  Level FlightAware Approximate
Sun 01:21:00 PM 45.4130 -79.0818 136° Southeast  Level FlightAware Approximate
Sun 01:22:00 PM 45.3653 -79.0173 136° Southeast  Level FlightAware Approximate
Sun 01:23:00 PM 45.3176 -78.9528 136° Southeast  Level FlightAware Approximate
Sun 01:24:00 PM 45.2699 -78.8885 137° Southeast  Level FlightAware Approximate
Sun 01:25:00 PM 45.2221 -78.8243 137° Southeast  Level FlightAware Approximate
Sun 01:26:00 PM 45.1742 -78.7602 137° Southeast  Level FlightAware Approximate
Sun 01:27:00 PM 45.1264 -78.6963 137° Southeast  Level FlightAware Approximate
Sun 01:28:00 PM 45.0785 -78.6324 137° Southeast  Level FlightAware Approximate
Sun 01:29:00 PM 45.0302 -78.5691 137° Southeast  Level FlightAware Approximate
Sun 01:30:00 PM 44.9818 -78.5061 137° Southeast  Level FlightAware Approximate
Sun 01:31:00 PM 44.9333 -78.4432 137° Southeast  Level FlightAware Approximate
Sun 01:32:00 PM 44.8850 -78.3802 137° Southeast  Level FlightAware Approximate
Sun 01:33:00 PM 44.8368 -78.3170 137° Southeast  Level FlightAware Approximate
Sun 01:34:00 PM 44.7886 -78.2539 137° Southeast  Level FlightAware Approximate
Sun 01:35:00 PM 44.7404 -78.1908 137° Southeast  Level FlightAware Approximate
Sun 01:36:00 PM 44.6922 -78.1279 137° Southeast  Level FlightAware Approximate
Sun 01:37:00 PM 44.6439 -78.0651 137° Southeast  Level FlightAware Approximate
Sun 01:38:00 PM 44.5956 -78.0023 137° Southeast  Level FlightAware Approximate
Sun 01:39:00 PM 44.5472 -77.9397 137° Southeast  Level FlightAware Approximate
Sun 01:40:00 PM 44.4988 -77.8772 137° Southeast  Level FlightAware Approximate
Sun 01:41:00 PM 44.4504 -77.8148 137° Southeast  Level FlightAware Approximate
Sun 01:42:00 PM 44.4020 -77.7525 137° Southeast  Level FlightAware Approximate
Sun 01:43:00 PM 44.3535 -77.6903 137° Southeast  Level FlightAware Approximate
Sun 01:44:00 PM 44.3050 -77.6282 138° Southeast  Level FlightAware Approximate
Sun 01:45:00 PM 44.2564 -77.5662 138° Southeast  Level FlightAware Approximate
Sun 01:46:00 PM 44.2078 -77.5043 138° Southeast  Level FlightAware Approximate
Sun 01:47:00 PM 44.1592 -77.4426 138° Southeast  Level FlightAware Approximate
Sun 01:48:00 PM 44.1105 -77.3809 138° Southeast  Level FlightAware Approximate
Sun 01:49:00 PM 44.0618 -77.3193 138° Southeast  Level FlightAware Approximate
Sun 01:50:00 PM 44.0131 -77.2578 138° Southeast  Level FlightAware Approximate
Sun 01:51:00 PM 43.9644 -77.1964 138° Southeast  Level FlightAware Approximate
Sun 01:52:00 PM 43.9156 -77.1351 138° Southeast  Level FlightAware Approximate
Sun 01:53:00 PM 43.8668 -77.0739 138° Southeast  Level FlightAware Approximate
Sun 01:54:00 PM 43.8179 -77.0129 138° Southeast  Level FlightAware Approximate
Sun 01:55:00 PM 43.7690 -76.9519 138° Southeast  Level FlightAware Approximate
Sun 01:56:00 PM 43.7201 -76.8910 138° Southeast  Level FlightAware Approximate
Sun 01:57:00 PM 43.6712 -76.8302 138° Southeast  Level FlightAware Approximate
Sun 01:58:00 PM 43.6221 -76.7697 139° Southeast  Level FlightAware Approximate
Sun 01:59:00 PM 43.5725 -76.7100 139° Southeast  Level FlightAware Approximate
Sun 02:00:00 PM 43.5229 -76.6504 139° Southeast  Level FlightAware Approximate
Sun 02:01:00 PM 43.4733 -76.5909 139° Southeast  Level FlightAware Approximate
Sun 02:02:00 PM 43.4236 -76.5314 139° Southeast  Level FlightAware Approximate
Sun 02:03:00 PM 43.3740 -76.4719 138° Southeast  Level FlightAware Approximate
Sun 02:04:00 PM 43.3248 -76.4119 138° Southeast  Level FlightAware Approximate
Sun 02:05:00 PM 43.2755 -76.3520 138° Southeast  Level FlightAware Approximate
Sun 02:06:00 PM 43.2262 -76.2922 139° Southeast  Level FlightAware Approximate
Sun 02:07:00 PM 43.1769 -76.2325 139° Southeast  Level FlightAware Approximate
Sun 02:08:00 PM 43.1205 -76.1926 170° South  Level FlightAware Approximate
Sun 02:09:00 PM 43.0558 -76.1765 170° South  Level FlightAware Approximate
Sun 02:10:00 PM 42.9913 -76.1589 167° South  Level FlightAware Approximate
Sun 02:11:00 PM 42.9271 -76.1393 167° South  Level FlightAware Approximate
Sun 02:12:00 PM 42.8629 -76.1197 167° South  Level FlightAware Approximate
Sun 02:13:00 PM 42.7987 -76.1002 167° South  Level FlightAware Approximate
Sun 02:14:00 PM 42.7345 -76.0807 167° South  Level FlightAware Approximate
Sun 02:15:00 PM 42.6703 -76.0612 167° South  Level FlightAware Approximate
Sun 02:16:00 PM 42.6059 -76.0428 169° South  Level FlightAware Approximate
Sun 02:17:00 PM 42.5414 -76.0259 169° South  Level FlightAware Approximate
Sun 02:18:00 PM 42.4767 -76.0090 169° South  Level FlightAware Approximate
Sun 02:19:00 PM 42.4122 -75.9921 169° South  Level FlightAware Approximate
Sun 02:20:00 PM 42.3475 -75.9753 169° South  Level FlightAware Approximate
Sun 02:21:00 PM 42.2830 -75.9585 169° South  Level FlightAware Approximate
Sun 02:22:00 PM 42.2187 -75.9396 166° South  Level FlightAware Approximate
Sun 02:23:00 PM 42.1549 -75.9183 166° South  Level FlightAware Approximate
Sun 02:24:00 PM 42.0909 -75.8974 168° South  Level FlightAware Approximate
Sun 02:25:00 PM 42.0266 -75.8790 168° South  Level FlightAware Approximate
Sun 02:26:00 PM 41.9622 -75.8606 168° South  Level FlightAware Approximate
Sun 02:27:00 PM 41.8979 -75.8422 168° South  Level FlightAware Approximate
Sun 02:28:00 PM 41.8328 -75.8333 180° South  Level FlightAware Approximate
Sun 02:29:00 PM 41.7678 -75.8211 169° South  Level FlightAware Approximate
Sun 02:30:00 PM 41.7035 -75.8029 168° South  Level FlightAware Approximate
Sun 02:31:00 PM 41.6392 -75.7840 168° South  Level FlightAware Approximate
Sun 02:32:00 PM 41.5750 -75.7651 168° South  Level FlightAware Approximate
Sun 02:33:00 PM 41.5107 -75.7462 168° South  Level FlightAware Approximate
Sun 02:34:00 PM 41.4463 -75.7315 159° South  Level FlightAware Approximate
Sun 02:35:00 PM 41.3831 -75.7083 169° South  Level FlightAware Approximate
Sun 02:36:00 PM 41.3184 -75.6921 169° South  Level FlightAware Approximate
Sun 02:37:00 PM 41.2607 -75.6673 116° Southeast  Level FlightAware Approximate
Sun 02:38:00 PM 41.2313 -75.5890 116° Southeast  Level FlightAware Approximate
Sun 02:39:00 PM 41.2063 -75.5084 108° East  Level FlightAware Approximate
Sun 02:40:00 PM 41.1855 -75.4254 108° East  Level FlightAware Approximate
Sun 02:41:00 PM 41.1508 -75.3516 124° Southeast  Level FlightAware Approximate
Sun 02:42:00 PM 41.1306 -75.2713 120° Southeast  Level FlightAware Approximate
Sun 02:43:00 PM 41.0984 -75.1952 114° Southeast  Level FlightAware Approximate
Sun 02:44:00 PM 41.0718 -75.1154 114° Southeast  Level FlightAware Approximate
Sun 02:45:00 PM 41.0458 -75.0374 114° Southeast  Level FlightAware Approximate
Sun 02:46:00 PM 41.0224 -74.9561 108° East  Level FlightAware Approximate
Sun 02:47:00 PM 40.9987 -74.8820 143° Southeast  Level FlightAware Approximate
Sun 02:48:00 PM 40.9833 -74.8050 90° East  Level FlightAware Approximate
Sun 02:49:00 PM 40.9699 -74.7232 124° Southeast  Level FlightAware Approximate
Sun 02:50:00 PM 40.9648 -74.6376 101° East  Level FlightAware Approximate
Sun 02:51:00 PM 40.9517 -74.5522 101° East  Level FlightAware Approximate
Sun 02:52:00 PM 40.9385 -74.4669 102° East  Level FlightAware Approximate
Sun 02:53:00 PM 40.9333 -74.3805 90° East  Level FlightAware Approximate
Sun 02:54:00 PM 40.9241 -74.2948 102° East  Level FlightAware Approximate
Sun 02:55:00 PM 40.9167 -74.2088 90° East  Level FlightAware Approximate
Sun 02:56:00 PM 40.8997 -74.1328 123° Southeast  Level FlightAware Approximate
Sun 02:57:00 PM 40.8643 -74.0596 114° Southeast  Level FlightAware Approximate
Sun 02:58:00 PM 40.8378 -73.9800 114° Southeast  Level FlightAware Approximate
Sun 02:59:00 PM 40.8013 -73.9206 114° Southeast  Level FlightAware Approximate
Sun 03:00:00 PM 40.7645 -73.8541 153° Southeast  Level FlightAware Approximate
Sun 03:01:00 PM 40.7044 -73.8189 159° South  Level FlightAware Approximate
Sun 03:02:00 PM 40.6469 -73.7769 150° Southeast  Level FlightAware Approximate
Sun 03:03:00 PM 40.6398 -73.7789 150° Southeast  Level Estimated
Sun 03:04:00 PM 40.6398 -73.7789 150° Southeast  Level Estimated
Sun 03:05:00 PM 40.6398 -73.7789 150° Southeast  Level Estimated
Sun 03:06:00 PM 40.6398 -73.7789 150° Southeast  Level Estimated
Sun 03:07:00 PM 40.6398 -73.7789 150° Southeast  Level Estimated
Sun 03:08:00 PM 40.6398 -73.7789 150° Southeast  Level Estimated
Sun 03:09:00 PM 40.6398 -73.7789 150° Southeast  Level Estimated
Sun 03:10:00 PM 40.6398 -73.7789 150° Southeast  Level Estimated
Sun 03:11:00 PM 40.6398 -73.7789 150° Southeast  Level Estimated
Sun 03:12:00 PM 40.6398 -73.7789 150° Southeast  Level Estimated
Sun 03:13:00 PM 40.6398 -73.7789 150° Southeast  Level Estimated
Sun 03:14:00 PM 40.6398 -73.7789 150° Southeast  Level Estimated
Sun 03:15:00 PM 40.6398 -73.7789 150° Southeast  Level Estimated
Sun 03:16:00 PM 40.6398 -73.7789 150° Southeast  Level Estimated
Sun 03:17:00 PM 40.6398 -73.7789 150° Southeast  Level Estimated
Sun 03:18:00 PM 40.6398 -73.7789 150° Southeast  Level Estimated
Sun 03:19:00 PM 40.6398 -73.7789 150° Southeast  Level Estimated
Sun 03:20:00 PM 40.6398 -73.7789 150° Southeast  Level Estimated
Sun 03:21:00 PM 40.6398 -73.7789 150° Southeast  Level Estimated
Sun 03:22:00 PM 40.6398 -73.7789 150° Southeast  Level Estimated
Sun 03:23:00 PM 40.6398 -73.7789 150° Southeast  Level Estimated
Sun 03:24:00 PM 40.6398 -73.7789 150° Southeast  Level Estimated
Sun 03:25:00 PM 40.6398 -73.7789 150° Southeast  Level Estimated
Sun 03:26:00 PM 40.6398 -73.7789 150° Southeast  Level Estimated
Sun 03:27:00 PM 40.6398 -73.7789 150° Southeast  Level Estimated
Sun 03:28:00 PM 40.6398 -73.7789 150° Southeast  Level Estimated
Sun 03:29:00 PM 40.6398 -73.7789 150° Southeast  Level Estimated
Sun 03:30:00 PM 40.6398 -73.7789 150° Southeast  Level Estimated
Sun 03:31:00 PM 40.6398 -73.7789 150° Southeast  Level Estimated
Sun 03:32:00 PM 40.6398 -73.7789 150° Southeast  Level Estimated
Sun 03:33:00 PM 40.6398 -73.7789 150° Southeast  Level Estimated
Sun 03:34:00 PM 40.6398 -73.7789 150° Southeast  Level Estimated
Sun 03:35:00 PM 40.6398 -73.7789 150° Southeast  Level Estimated
Sun 03:36:00 PM 40.6398 -73.7789 150° Southeast  Level Estimated
Sun 03:37:00 PM 40.6398 -73.7789 150° Southeast  Level Estimated
Sun 03:38:00 PM 40.6398 -73.7789 150° Southeast  Level Estimated
Sun 03:39:00 PM 40.6398 -73.7789 150° Southeast  Level Estimated
Sun 03:40:00 PM 40.6398 -73.7789 150° Southeast  Level Estimated
Sun 03:41:00 PM 40.6398 -73.7789 150° Southeast  Level Estimated
Sun 03:42:00 PM 40.6398 -73.7789 150° Southeast  Level Estimated
Sun 03:43:00 PM 40.6398 -73.7789 150° Southeast  Level Estimated
Sun 03:44:00 PM 40.6398 -73.7789 150° Southeast  Level Estimated
Sun 03:45:00 PM 40.6398 -73.7789 150° Southeast  Level Estimated
Sun 03:46:00 PM 40.6398 -73.7789 150° Southeast  Level Estimated
Sun 03:47:00 PM 40.6398 -73.7789 150° Southeast  Level Estimated
Sun 03:48:00 PM 40.6398 -73.7789 150° Southeast  Level Estimated
Sun 03:49:00 PM 40.6398 -73.7789 150° Southeast  Level Estimated
Sun 03:50:00 PM 40.6398 -73.7789 150° Southeast  Level Estimated
Sun 03:51:00 PM 40.6398 -73.7789 150° Southeast  Level Estimated
Sun 03:52:00 PM 40.6398 -73.7789 150° Southeast  Level Estimated
Sun 03:53:00 PM 40.6398 -73.7789 150° Southeast  Level Estimated
Sun 03:54:00 PM 40.6398 -73.7789 150° Southeast  Level Estimated
Sun 03:55:00 PM 40.6398 -73.7789 150° Southeast  Level Estimated
Sun 03:56:00 PM 40.6398 -73.7789 150° Southeast  Level Estimated
Sun 03:57:00 PM 40.6398 -73.7789 150° Southeast  Level Estimated
Sun 03:58:00 PM 40.6398 -73.7789 150° Southeast  Level Estimated
Sun 03:59:00 PM 40.6398 -73.7789 150° Southeast  Level Estimated
Sun 04:00:00 PM 40.6398 -73.7789 150° Southeast  Level Estimated
Sun 04:01:00 PM 40.6398 -73.7789 150° Southeast  Level Estimated
Sun 04:02:00 PM 40.6398 -73.7789 150° Southeast  Level Estimated
Sun 04:03:00 PM 40.6398 -73.7789 150° Southeast  Level Estimated
Sun 04:04:00 PM 40.6398 -73.7789 150° Southeast  Level Estimated
Sun 04:05:00 PM 40.6398 -73.7789 150° Southeast  Level Estimated
Sun 04:06:00 PM 40.6398 -73.7789 150° Southeast  Level Estimated
Sun 04:07:00 PM 40.6398 -73.7789 150° Southeast  Level Estimated
Sun 04:08:00 PM 40.6398 -73.7789 150° Southeast  Level Estimated
Sun 04:09:00 PM 40.6398 -73.7789 150° Southeast  Level Estimated
Sun 04:10:00 PM 40.6398 -73.7789 150° Southeast  Level Estimated
Sun 04:11:00 PM 40.6398 -73.7789 150° Southeast  Level Estimated
Sun 04:12:00 PM 40.6398 -73.7789 150° Southeast  Level Estimated
Sun 04:13:00 PM 40.6398 -73.7789 150° Southeast  Level Estimated
Sun 04:14:00 PM 40.6398 -73.7789 150° Southeast  Level Estimated
Sun 04:15:00 PM 40.6398 -73.7789 150° Southeast  Level Estimated
Sun 04:16:00 PM 40.6398 -73.7789 150° Southeast  Level Estimated
Sun 04:17:00 PM 40.6398 -73.7789 150° Southeast  Level Estimated
Sun 04:18:00 PM 40.6398 -73.7789 150° Southeast  Level Estimated
Sun 04:19:00 PM 40.6398 -73.7789 150° Southeast  Level Estimated
Sun 04:20:00 PM 40.6398 -73.7789 150° Southeast  Level Estimated
Sun 04:21:00 PM 40.6398 -73.7789 150° Southeast  Level Estimated
Sun 04:22:00 PM 40.6398 -73.7789 150° Southeast  Level Estimated
Sun 04:23:00 PM 40.6398 -73.7789 150° Southeast  Level Estimated
Sun 04:24:00 PM 40.6398 -73.7789 150° Southeast  Level Estimated
Sun 04:25:00 PM 40.6398 -73.7789 150° Southeast  Level Estimated
Sun 04:26:00 PM 40.6398 -73.7789 150° Southeast  Level Estimated
Sun 04:27:00 PM 40.6398 -73.7789 150° Southeast  Level Estimated
Sun 04:28:00 PM 40.6398 -73.7789 150° Southeast  Level Estimated
Sun 04:29:00 PM 40.6398 -73.7789 150° Southeast  Level Estimated
Sun 04:30:00 PM 40.6398 -73.7789 150° Southeast  Level Estimated
Sun 04:31:00 PM 40.6398 -73.7789 150° Southeast  Level Estimated
Sun 04:32:00 PM 40.6398 -73.7789 150° Southeast  Level Estimated
Sun 04:33:00 PM 40.6398 -73.7789 150° Southeast  Level Estimated
Sun 04:34:00 PM 40.6398 -73.7789 150° Southeast  Level Estimated
Sun 04:35:00 PM 40.6398 -73.7789 150° Southeast  Level Estimated
Sun 04:36:00 PM 40.6398 -73.7789 150° Southeast  Level Estimated
Sun 04:37:00 PM 40.6398 -73.7789 150° Southeast  Level Estimated
Sun 04:38:00 PM 40.6398 -73.7789 150° Southeast  Level Estimated
Sun 04:39:00 PM 40.6398 -73.7789 150° Southeast  Level Estimated
Sun 04:40:00 PM 40.6398 -73.7789 150° Southeast  Level Estimated
Sun 04:41:00 PM 40.6398 -73.7789 150° Southeast  Level Estimated
Sun 04:42:00 PM 40.6398 -73.7789 150° Southeast  Level Estimated
Sun 04:43:00 PM 40.6398 -73.7789 150° Southeast  Level Estimated
Sun 04:44:00 PM 40.6398 -73.7789 150° Southeast  Level Estimated
Sun 04:45:00 PM 40.6398 -73.7789 150° Southeast  Level Estimated
Sun 04:46:00 PM 40.6398 -73.7789 150° Southeast  Level Estimated
Sun 04:47:00 PM 40.6398 -73.7789 150° Southeast  Level Estimated
Sun 04:48:00 PM 40.6398 -73.7789 150° Southeast  Level Estimated
Sun 04:49:00 PM 40.6398 -73.7789 150° Southeast  Level Estimated
Sun 04:50:00 PM 40.6398 -73.7789 150° Southeast  Level Estimated
Sun 04:51:00 PM 40.6398 -73.7789 150° Southeast  Level Estimated
Sun 04:52:00 PM 40.6398 -73.7789 150° Southeast  Level Estimated
Sun 04:53:00 PM 40.6398 -73.7789 150° Southeast  Level Estimated
Sun 04:54:00 PM 40.6398 -73.7789 150° Southeast  Level Estimated
Sun 04:55:00 PM 40.6398 -73.7789 150° Southeast  Level Estimated
Sun 04:56:00 PM 40.6398 -73.7789 150° Southeast  Level Estimated
Sun 04:57:00 PM 40.6398 -73.7789 150° Southeast  Level Estimated
Sun 04:58:00 PM 40.6398 -73.7789 150° Southeast  Level Estimated
Sun 04:59:00 PM 40.6398 -73.7789 150° Southeast  Level Estimated
Sun 05:00:00 PM 40.6398 -73.7789 150° Southeast  Level Estimated
Sun 05:01:00 PM 40.6398 -73.7789 150° Southeast  Level Estimated
Sun 05:02:00 PM 40.6398 -73.7789 150° Southeast  Level Estimated
Sun 05:03:00 PM 40.6398 -73.7789 150° Southeast  Level Estimated
Sun 05:04:00 PM 40.6398 -73.7789 150° Southeast  Level Estimated
Sun 05:05:00 PM 40.6398 -73.7789 150° Southeast  Level Estimated
Sun 05:06:00 PM 40.6398 -73.7789 150° Southeast  Level Estimated
Sun 05:07:00 PM 40.6398 -73.7789 150° Southeast  Level Estimated
Sun 05:08:00 PM 40.6398 -73.7789 150° Southeast  Level Estimated
Sun 05:09:00 PM 40.6398 -73.7789 150° Southeast  Level Estimated
Sun 05:10:00 PM 40.6398 -73.7789 150° Southeast  Level Estimated
Sun 05:11:00 PM 40.6398 -73.7789 150° Southeast  Level Estimated
Sun 05:12:00 PM 40.6398 -73.7789 150° Southeast  Level Estimated
Sun 05:13:00 PM 40.6398 -73.7789 150° Southeast  Level Estimated
Sun 05:14:00 PM 40.6398 -73.7789 150° Southeast  Level Estimated
Sun 05:15:00 PM 40.6398 -73.7789 150° Southeast  Level Estimated
Sun 05:16:00 PM 40.6398 -73.7789 150° Southeast  Level Estimated
Sun 05:17:00 PM 40.6398 -73.7789 150° Southeast  Level Estimated
Sun 05:18:00 PM 40.6398 -73.7789 150° Southeast  Level Estimated
Sun 05:19:00 PM 40.6398 -73.7789 150° Southeast  Level Estimated
Sun 05:20:00 PM 40.6398 -73.7789 150° Southeast  Level Estimated
Sun 05:21:00 PM 40.6398 -73.7789 150° Southeast  Level Estimated
Sun 05:22:00 PM 40.6398 -73.7789 150° Southeast  Level Estimated
Sun 05:23:00 PM 40.6398 -73.7789 150° Southeast  Level Estimated
Sun 05:24:00 PM 40.6398 -73.7789 150° Southeast  Level Estimated
Sun 05:25:00 PM 40.6398 -73.7789 150° Southeast  Level Estimated
Sun 05:26:00 PM 40.6398 -73.7789 150° Southeast  Level Estimated
Sun 05:27:00 PM 40.6398 -73.7789 150° Southeast  Level Estimated
Sun 05:28:00 PM 40.6398 -73.7789 150° Southeast  Level Estimated
Sun 05:29:00 PM 40.6398 -73.7789 150° Southeast  Level Estimated
Sun 05:30:00 PM 40.6398 -73.7789 150° Southeast  Level Estimated
Sun 05:31:00 PM 40.6398 -73.7789 150° Southeast  Level Estimated
Sun 05:32:00 PM 40.6398 -73.7789 150° Southeast  Level Estimated
Sun 05:33:00 PM 40.6398 -73.7789 150° Southeast  Level Estimated
Sun 05:34:00 PM 40.6398 -73.7789 150° Southeast  Level Estimated
Sun 05:35:00 PM 40.6398 -73.7789 150° Southeast  Level Estimated
Sun 05:36:00 PM 40.6398 -73.7789 150° Southeast  Level Estimated
Sun 05:37:00 PM 40.6398 -73.7789 150° Southeast  Level Estimated
Sun 05:38:00 PM 40.6398 -73.7789 150° Southeast  Level Estimated
Sun 05:39:00 PM 40.6398 -73.7789 150° Southeast  Level Estimated
Sun 05:40:00 PM 40.6398 -73.7789 150° Southeast  Level Estimated
Sun 05:41:00 PM 40.6398 -73.7789 150° Southeast  Level Estimated
Sun 05:42:00 PM 40.6398 -73.7789 150° Southeast  Level Estimated
Sun 05:43:00 PM 40.6398 -73.7789 150° Southeast  Level Estimated
Sun 05:44:00 PM 40.6398 -73.7789 150° Southeast  Level Estimated
Sun 05:45:00 PM 40.6398 -73.7789 150° Southeast  Level Estimated
Sun 05:46:00 PM 40.6398 -73.7789 150° Southeast  Level Estimated
Sun 05:47:00 PM 40.6398 -73.7789 150° Southeast  Level Estimated
Sun 05:48:00 PM 40.6398 -73.7789 150° Southeast  Level Estimated
Sun 05:49:00 PM 40.6398 -73.7789 150° Southeast  Level Estimated
Sun 05:50:00 PM 40.6398 -73.7789 150° Southeast  Level Estimated
Sun 05:51:00 PM 40.6398 -73.7789 150° Southeast  Level Estimated
Sun 05:52:00 PM 40.6398 -73.7789 150° Southeast  Level Estimated
Sun 05:53:00 PM 40.6398 -73.7789 150° Southeast  Level Estimated
Sun 05:54:00 PM 40.6398 -73.7789 150° Southeast  Level Estimated
Sun 05:55:00 PM 40.6398 -73.7789 150° Southeast  Level Estimated
Sun 05:56:00 PM 40.6398 -73.7789 150° Southeast  Level Estimated
Sun 05:57:00 PM 40.6398 -73.7789 150° Southeast  Level Estimated
Sun 05:58:00 PM 40.6398 -73.7789 150° Southeast  Level Estimated
Sun 05:59:00 PM 40.6398 -73.7789 150° Southeast  Level Estimated
Sun 06:00:00 PM 40.6398 -73.7789 150° Southeast  Level Estimated
Sun 06:01:00 PM 40.6398 -73.7789 150° Southeast  Level Estimated
Sun 06:02:00 PM 40.6398 -73.7789 150° Southeast  Level Estimated
Sun 06:03:00 PM 40.6398 -73.7789 150° Southeast  Level Estimated
Sun 06:04:00 PM 40.6398 -73.7789 150° Southeast  Level Estimated
Sun 06:05:00 PM 40.6398 -73.7789 150° Southeast  Level Estimated
Sun 06:06:00 PM 40.6398 -73.7789 150° Southeast  Level Estimated
Sun 06:07:00 PM 40.6398 -73.7789 150° Southeast  Level Estimated
Sun 06:08:00 PM 40.6398 -73.7789 150° Southeast  Level Estimated
Sun 06:09:00 PM 40.6398 -73.7789 150° Southeast  Level Estimated
Sun 06:10:00 PM 40.6398 -73.7789 150° Southeast  Level Estimated
Sun 06:11:00 PM 40.6398 -73.7789 150° Southeast  Level Estimated
Sun 06:12:00 PM 40.6398 -73.7789 150° Southeast  Level Estimated
Sun 06:13:00 PM 40.6398 -73.7789 150° Southeast  Level Estimated
Sun 06:14:00 PM 40.6398 -73.7789 150° Southeast  Level Estimated
Sun 06:15:00 PM 40.6398 -73.7789 150° Southeast  Level Estimated
Sun 06:16:00 PM 40.6398 -73.7789 150° Southeast  Level Estimated
Sun 06:17:00 PM 40.6398 -73.7789 150° Southeast  Level Estimated
Sun 06:18:00 PM 40.6398 -73.7789 150° Southeast  Level Estimated
Sun 06:19:00 PM 40.6398 -73.7789 150° Southeast  Level Estimated
Sun 06:20:00 PM 40.6398 -73.7789 150° Southeast  Level Estimated
Sun 06:21:00 PM 40.6398 -73.7789 150° Southeast  Level Estimated
Sun 06:22:00 PM 40.6398 -73.7789 150° Southeast  Level Estimated
Sun 06:23:00 PM 40.6398 -73.7789 150° Southeast  Level Estimated
Sun 06:24:00 PM 40.6398 -73.7789 150° Southeast  Level Estimated
Sun 06:25:00 PM 40.6398 -73.7789 150° Southeast  Level Estimated
Sun 06:26:00 PM 40.6398 -73.7789 150° Southeast  Level Estimated
Sun 06:27:00 PM 40.6398 -73.7789 150° Southeast  Level Estimated
Sun 06:28:00 PM 40.6398 -73.7789 150° Southeast  Level Estimated
Sun 06:29:00 PM 40.6398 -73.7789 150° Southeast  Level Estimated
Sun 06:30:00 PM 40.6398 -73.7789 150° Southeast  Level Estimated
Sun 06:31:00 PM 40.6398 -73.7789 150° Southeast  Level Estimated
Sun 06:32:00 PM 40.6398 -73.7789 150° Southeast  Level Estimated
Sun 06:33:00 PM 40.6398 -73.7789 150° Southeast  Level Estimated
Sun 06:34:00 PM 40.6398 -73.7789 150° Southeast  Level Estimated
Sun 06:35:00 PM 40.6398 -73.7789 150° Southeast  Level Estimated
Sun 06:36:00 PM 40.6398 -73.7789 150° Southeast  Level Estimated
Sun 06:37:00 PM 40.6398 -73.7789 150° Southeast  Level Estimated
Sun 06:38:00 PM 40.6398 -73.7789 150° Southeast  Level Estimated
Sun 06:39:00 PM 40.6398 -73.7789 150° Southeast  Level Estimated
Sun 06:40:00 PM 40.6398 -73.7789 150° Southeast  Level Estimated
Sun 06:41:00 PM 40.6398 -73.7789 150° Southeast  Level Estimated
Sun 06:42:00 PM 40.6398 -73.7789 150° Southeast  Level Estimated
Sun 06:43:00 PM 40.6398 -73.7789 150° Southeast  Level Estimated
Sun 06:44:00 PM 40.6398 -73.7789 150° Southeast  Level Estimated
Sun 06:45:00 PM 40.6398 -73.7789 150° Southeast  Level Estimated
Sun 06:46:00 PM 40.6398 -73.7789 150° Southeast  Level Estimated
Sun 06:47:00 PM 40.6398 -73.7789 150° Southeast  Level Estimated
Sun 06:48:00 PM 40.6398 -73.7789 150° Southeast  Level Estimated
Sun 06:49:00 PM 40.6398 -73.7789 150° Southeast  Level Estimated
Sun 06:50:00 PM 40.6398 -73.7789 150° Southeast  Level Estimated
Sun 06:51:00 PM 40.6398 -73.7789 150° Southeast  Level Estimated
Sun 06:52:00 PM 40.6398 -73.7789 150° Southeast  Level Estimated
Sun 06:53:00 PM 40.6398 -73.7789 150° Southeast  Level Estimated
Sun 06:54:00 PM 40.6398 -73.7789 150° Southeast  Level Estimated
Sun 06:55:00 PM 40.6398 -73.7789 150° Southeast  Level Estimated
Sun 06:56:00 PM 40.6398 -73.7789 150° Southeast  Level Estimated
Sun 06:57:00 PM 40.6398 -73.7789 150° Southeast  Level Estimated
Sun 06:58:00 PM 40.6398 -73.7789 150° Southeast  Level Estimated
Sun 06:59:00 PM 40.6398 -73.7789 150° Southeast  Level Estimated
Sun 07:00:00 PM 40.6398 -73.7789 150° Southeast  Level Estimated
Sun 07:01:00 PM 40.6398 -73.7789 150° Southeast  Level Estimated
Sun 07:02:00 PM 40.6398 -73.7789 150° Southeast  Level Estimated
Sun 07:03:00 PM 40.6398 -73.7789 150° Southeast  Level Estimated
Sun 07:04:00 PM 40.6398 -73.7789 150° Southeast  Level Estimated
Sun 07:05:00 PM 40.6398 -73.7789 150° Southeast  Level Estimated
Sun 07:06:00 PM 40.6398 -73.7789 150° Southeast  Level Estimated
Sun 07:07:00 PM 40.6398 -73.7789 150° Southeast  Level Estimated
Sun 07:08:00 PM 40.6398 -73.7789 150° Southeast  Level Estimated
Sun 07:09:00 PM 40.6398 -73.7789 150° Southeast  Level Estimated
Sun 07:10:00 PM 40.6398 -73.7789 150° Southeast  Level Estimated
Sun 07:11:00 PM 40.6398 -73.7789 150° Southeast  Level Estimated
Sun 07:12:00 PM 40.6398 -73.7789 150° Southeast  Level Estimated
Sun 07:13:00 PM 40.6398 -73.7789 150° Southeast  Level Estimated
Sun 07:14:00 PM 40.6398 -73.7789 150° Southeast  Level Estimated
Sun 07:15:00 PM 40.6398 -73.7789 150° Southeast  Level Estimated
Sun 07:16:00 PM 40.6398 -73.7789 150° Southeast  Level Estimated
Sun 07:17:00 PM 40.6398 -73.7789 150° Southeast  Level Estimated
Sun 07:18:00 PM 40.6398 -73.7789 150° Southeast  Level Estimated
Sun 07:19:00 PM 40.6398 -73.7789 150° Southeast  Level Estimated
Sun 07:20:00 PM 40.6398 -73.7789 150° Southeast  Level Estimated
Sun 07:21:00 PM 40.6398 -73.7789 150° Southeast  Level Estimated
Sun 07:22:00 PM 40.6398 -73.7789 150° Southeast  Level Estimated
Sun 07:23:00 PM 40.6398 -73.7789 150° Southeast  Level Estimated
Sun 07:24:00 PM 40.6398 -73.7789 150° Southeast  Level Estimated
Sun 07:25:00 PM 40.6398 -73.7789 150° Southeast  Level Estimated
Sun 07:26:00 PM 40.6398 -73.7789 150° Southeast  Level Estimated
Sun 07:27:00 PM 40.6398 -73.7789 150° Southeast  Level Estimated
Sun 07:28:00 PM 40.6398 -73.7789 150° Southeast  Level Estimated
Sun 07:29:00 PM 40.6398 -73.7789 150° Southeast  Level Estimated
Sun 07:30:00 PM 40.6398 -73.7789 150° Southeast  Level Estimated
Sun 07:31:00 PM 40.6398 -73.7789 150° Southeast  Level Estimated
Sun 07:32:00 PM 40.6398 -73.7789 150° Southeast  Level Estimated
Sun 07:33:00 PM 40.6398 -73.7789 150° Southeast  Level Estimated
Sun 07:34:00 PM 40.6398 -73.7789 150° Southeast  Level Estimated
Sun 07:35:00 PM 40.6398 -73.7789 150° Southeast  Level Estimated
Sun 07:36:00 PM 40.6398 -73.7789 150° Southeast  Level Estimated
Sun 07:37:00 PM 40.6398 -73.7789 150° Southeast  Level Estimated
Sun 07:38:00 PM 40.6398 -73.7789 150° Southeast  Level Estimated
Sun 07:39:00 PM 40.6398 -73.7789 150° Southeast  Level Estimated
Sun 07:40:00 PM 40.6398 -73.7789 150° Southeast  Level Estimated
Sun 07:41:00 PM 40.6398 -73.7789 150° Southeast  Level Estimated
Sun 07:42:00 PM 40.6398 -73.7789 150° Southeast  Level Estimated
Sun 07:43:00 PM 40.6398 -73.7789 150° Southeast  Level Estimated
Sun 07:44:00 PM 40.6398 -73.7789 150° Southeast  Level Estimated
Sun 07:45:00 PM 40.6398 -73.7789 150° Southeast  Level Estimated
Sun 07:46:00 PM 40.6398 -73.7789 150° Southeast  Level Estimated
Sun 07:47:00 PM 40.6398 -73.7789 150° Southeast  Level Estimated
Sun 07:48:00 PM 40.6398 -73.7789 150° Southeast  Level Estimated
Sun 07:49:00 PM 40.6398 -73.7789 150° Southeast  Level Estimated
Sun 07:50:00 PM 40.6398 -73.7789 150° Southeast  Level Estimated
Sun 07:51:00 PM 40.6398 -73.7789 150° Southeast  Level Estimated
Sun 07:52:00 PM 40.6398 -73.7789 150° Southeast  Level Estimated
Sun 07:53:00 PM 40.6398 -73.7789 150° Southeast  Level Estimated
Sun 07:54:00 PM 40.6398 -73.7789 150° Southeast  Level Estimated
Sun 07:55:00 PM 40.6398 -73.7789 150° Southeast  Level Estimated
Sun 07:56:00 PM 40.6398 -73.7789 150° Southeast  Level Estimated
Sun 07:57:00 PM 40.6398 -73.7789 150° Southeast  Level Estimated
Sun 07:58:00 PM 40.6398 -73.7789 150° Southeast  Level Estimated
Sun 07:59:00 PM 40.6398 -73.7789 150° Southeast  Level Estimated
Sun 08:00:00 PM 40.6398 -73.7789 150° Southeast  Level Estimated
Sun 08:01:00 PM 40.6398 -73.7789 150° Southeast  Level Estimated
Sun 08:02:00 PM 40.6398 -73.7789 150° Southeast  Level Estimated
Sun 08:03:00 PM 40.6398 -73.7789 150° Southeast  Level Estimated
Sun 08:04:00 PM 40.6398 -73.7789 150° Southeast  Level Estimated
Sun 08:05:00 PM 40.6398 -73.7789 150° Southeast  Level Estimated
Sun 08:06:00 PM 40.6398 -73.7789 150° Southeast  Level Estimated
Sun 08:07:00 PM 40.6398 -73.7789 150° Southeast  Level Estimated
Sun 08:08:00 PM 40.6398 -73.7789 150° Southeast  Level Estimated
Sun 08:09:00 PM 40.6398 -73.7789 150° Southeast  Level Estimated
Sun 08:10:00 PM 40.6398 -73.7789 150° Southeast  Level Estimated
Sun 08:11:00 PM 40.6398 -73.7789 150° Southeast  Level Estimated
Sun 08:12:00 PM 40.6398 -73.7789 150° Southeast  Level Estimated
Sun 08:13:00 PM 40.6398 -73.7789 150° Southeast  Level Estimated
Sun 08:14:00 PM 40.6398 -73.7789 150° Southeast  Level Estimated
Sun 08:15:00 PM 40.6398 -73.7789 150° Southeast  Level Estimated
Sun 08:16:00 PM 40.6398 -73.7789 150° Southeast  Level Estimated
Sun 08:17:00 PM 40.6398 -73.7789 150° Southeast  Level Estimated
Sun 08:18:00 PM 40.6398 -73.7789 150° Southeast  Level Estimated
Sun 08:19:00 PM 40.6398 -73.7789 150° Southeast  Level Estimated
Sun 08:20:00 PM 40.6398 -73.7789 150° Southeast  Level Estimated
Sun 08:21:00 PM 40.6398 -73.7789 150° Southeast  Level Estimated
Sun 08:22:00 PM 40.6398 -73.7789 150° Southeast  Level Estimated
Sun 08:23:00 PM 40.6398 -73.7789 150° Southeast  Level Estimated
Sun 08:24:00 PM 40.6398 -73.7789 150° Southeast  Level Estimated
Sun 08:25:00 PM 40.6398 -73.7789 150° Southeast  Level Estimated
Sun 08:26:00 PM 40.6398 -73.7789 150° Southeast  Level Estimated
Sun 08:27:00 PM 40.6398 -73.7789 150° Southeast  Level Estimated
Sun 08:28:00 PM 40.6398 -73.7789 150° Southeast  Level Estimated
Sun 08:29:00 PM 40.6398 -73.7789 150° Southeast  Level Estimated
Sun 08:30:00 PM 40.6398 -73.7789 150° Southeast  Level Estimated
Sun 08:31:00 PM 40.6398 -73.7789 150° Southeast  Level Estimated
Sun 08:32:00 PM 40.6398 -73.7789 150° Southeast  Level Estimated
Sun 08:33:00 PM 40.6398 -73.7789 150° Southeast  Level Estimated
Sun 08:34:00 PM 40.6398 -73.7789 150° Southeast  Level Estimated
Sun 08:35:00 PM 40.6398 -73.7789 150° Southeast  Level Estimated
Sun 08:36:00 PM 40.6398 -73.7789 150° Southeast  Level Estimated
Sun 08:37:00 PM 40.6398 -73.7789 150° Southeast  Level Estimated
Sun 08:38:00 PM 40.6398 -73.7789 150° Southeast  Level Estimated
Sun 08:39:00 PM 40.6398 -73.7789 150° Southeast  Level Estimated
Sun 08:40:00 PM 40.6398 -73.7789 150° Southeast  Level Estimated
Sun 08:41:00 PM 40.6398 -73.7789 150° Southeast  Level Estimated
Sun 08:42:00 PM 40.6398 -73.7789 150° Southeast  Level Estimated
Sun 08:43:00 PM 40.6398 -73.7789 150° Southeast  Level Estimated
Sun 08:44:00 PM 40.6398 -73.7789 150° Southeast  Level Estimated
Sun 08:45:00 PM 40.6398 -73.7789 150° Southeast  Level Estimated
Sun 08:46:00 PM 40.6398 -73.7789 150° Southeast  Level Estimated
Sun 08:47:00 PM 40.6398 -73.7789 150° Southeast  Level Estimated
Sun 08:48:00 PM 40.6398 -73.7789 150° Southeast  Level Estimated
Sun 08:49:00 PM 40.6398 -73.7789 150° Southeast  Level Estimated
Sun 08:50:00 PM 40.6398 -73.7789 150° Southeast  Level Estimated
Sun 08:51:00 PM 40.6398 -73.7789 150° Southeast  Level Estimated
Sun 08:52:00 PM 40.6398 -73.7789 150° Southeast  Level Estimated
Sun 08:53:00 PM 40.6398 -73.7789 150° Southeast  Level Estimated
Sun 08:54:00 PM 40.6398 -73.7789 150° Southeast  Level Estimated
Sun 08:55:00 PM 40.6398 -73.7789 150° Southeast  Level Estimated
Sun 08:56:00 PM 40.6398 -73.7789 150° Southeast  Level Estimated
Sun 08:57:00 PM 40.6398 -73.7789 150° Southeast  Level Estimated
Sun 08:58:00 PM 40.6398 -73.7789 150° Southeast  Level Estimated
Sun 08:59:00 PM 40.6398 -73.7789 150° Southeast  Level Estimated
Sun 09:00:00 PM 40.6398 -73.7789 150° Southeast  Level Estimated
Sun 09:01:00 PM 40.6398 -73.7789 150° Southeast  Level Estimated
Sun 09:02:00 PM 40.6398 -73.7789 150° Southeast  Level Estimated
Sun 09:03:00 PM 40.6398 -73.7789 150° Southeast  Level Estimated
Sun 09:04:00 PM 40.6398 -73.7789 150° Southeast  Level Estimated
Sun 09:05:00 PM 40.6398 -73.7789 150° Southeast  Level Estimated
Sun 09:06:00 PM 40.6398 -73.7789 150° Southeast  Level Estimated
Sun 09:07:00 PM 40.6398 -73.7789 150° Southeast  Level Estimated
Sun 09:08:00 PM 40.6398 -73.7789 150° Southeast  Level Estimated
Sun 09:09:00 PM 40.6398 -73.7789 150° Southeast  Level Estimated
Sun 09:10:00 PM 40.6398 -73.7789 150° Southeast  Level Estimated
Sun 09:11:00 PM 40.6398 -73.7789 150° Southeast  Level Estimated
Sun 09:12:00 PM 40.6398 -73.7789 150° Southeast  Level Estimated
Sun 09:13:00 PM 40.6398 -73.7789 150° Southeast  Level Estimated
Sun 09:14:00 PM 40.6398 -73.7789 150° Southeast  Level Estimated
Sun 09:15:00 PM 40.6398 -73.7789 150° Southeast  Level Estimated
Sun 09:16:00 PM 40.6398 -73.7789 150° Southeast  Level Estimated
Sun 09:17:00 PM 40.6398 -73.7789 150° Southeast  Level Estimated
Sun 09:18:00 PM 40.6398 -73.7789 150° Southeast  Level Estimated
Sun 09:19:00 PM 40.6398 -73.7789 150° Southeast  Level Estimated
Sun 09:20:00 PM 40.6398 -73.7789 150° Southeast  Level Estimated
Sun 09:21:00 PM 40.6398 -73.7789 150° Southeast  Level Estimated
Sun 09:22:00 PM 40.6398 -73.7789 150° Southeast  Level Estimated
Sun 09:23:00 PM 40.6398 -73.7789 150° Southeast  Level Estimated
Sun 09:24:00 PM 40.6398 -73.7789 150° Southeast  Level Estimated
Sun 09:25:00 PM 40.6398 -73.7789 150° Southeast  Level Estimated
Sun 09:26:00 PM 40.6398 -73.7789 150° Southeast  Level Estimated
Sun 09:27:00 PM 40.6398 -73.7789 150° Southeast  Level Estimated
Sun 09:28:00 PM 40.6398 -73.7789 150° Southeast  Level Estimated
Sun 09:29:00 PM 40.6398 -73.7789 150° Southeast  Level Estimated
Sun 09:30:00 PM 40.6398 -73.7789 150° Southeast  Level Estimated
Sun 09:31:00 PM 40.6398 -73.7789 150° Southeast  Level Estimated
Sun 09:32:00 PM 40.6398 -73.7789 150° Southeast  Level Estimated
Sun 09:33:00 PM 40.6398 -73.7789 150° Southeast  Level Estimated
Sun 09:34:00 PM 40.6398 -73.7789 150° Southeast  Level Estimated
Sun 09:35:00 PM 40.6398 -73.7789 150° Southeast  Level Estimated
Sun 09:36:00 PM 40.6398 -73.7789 150° Southeast  Level Estimated
Sun 09:37:00 PM 40.6398 -73.7789 150° Southeast  Level Estimated
Sun 09:38:00 PM 40.6398 -73.7789 150° Southeast  Level Estimated
Sun 09:39:00 PM 40.6398 -73.7789 150° Southeast  Level Estimated
Sun 09:40:00 PM 40.6398 -73.7789 150° Southeast  Level Estimated
Sun 09:41:00 PM 40.6398 -73.7789 150° Southeast  Level Estimated
Sun 09:42:00 PM 40.6398 -73.7789 150° Southeast  Level Estimated
Sun 09:43:00 PM 40.6398 -73.7789 150° Southeast  Level Estimated
Sun 09:44:00 PM 40.6398 -73.7789 150° Southeast  Level Estimated
Sun 09:45:00 PM 40.6398 -73.7789 150° Southeast  Level Estimated
Sun 09:46:00 PM 40.6398 -73.7789 150° Southeast  Level Estimated
Sun 09:47:00 PM 40.6398 -73.7789 150° Southeast  Level Estimated
Sun 09:48:00 PM 40.6398 -73.7789 150° Southeast  Level Estimated
Sun 09:49:00 PM 40.6398 -73.7789 150° Southeast  Level Estimated
Sun 09:50:00 PM 40.6398 -73.7789 150° Southeast  Level Estimated
Sun 09:51:00 PM 40.6398 -73.7789 150° Southeast  Level Estimated
Sun 09:52:00 PM 40.6398 -73.7789 150° Southeast  Level Estimated
Sun 09:53:00 PM 40.6398 -73.7789 150° Southeast  Level Estimated
Sun 09:54:00 PM 40.6398 -73.7789 150° Southeast  Level Estimated
Sun 09:55:00 PM 40.6398 -73.7789 150° Southeast  Level Estimated
Sun 09:56:00 PM 40.6398 -73.7789 150° Southeast  Level Estimated
Sun 09:57:00 PM 40.6398 -73.7789 150° Southeast  Level Estimated
Sun 09:58:00 PM 40.6398 -73.7789 150° Southeast  Level Estimated
Sun 09:59:00 PM 40.6398 -73.7789 150° Southeast  Level Estimated
Sun 10:00:00 PM 40.6398 -73.7789 150° Southeast  Level Estimated
Sun 10:01:00 PM 40.6398 -73.7789 150° Southeast  Level Estimated
Sun 10:02:00 PM 40.6398 -73.7789 150° Southeast  Level Estimated
Sun 10:03:00 PM 40.6398 -73.7789 150° Southeast  Level Estimated
Sun 10:04:00 PM 40.6398 -73.7789 150° Southeast  Level Estimated
Sun 10:05:00 PM 40.6398 -73.7789 150° Southeast  Level Estimated
Sun 10:06:00 PM 40.6398 -73.7789 150° Southeast  Level Estimated
Sun 10:07:00 PM 40.6398 -73.7789 150° Southeast  Level Estimated
Sun 10:08:00 PM 40.6398 -73.7789 150° Southeast  Level Estimated
Sun 10:09:00 PM 40.6398 -73.7789 150° Southeast  Level Estimated
Sun 10:10:00 PM 40.6398 -73.7789 150° Southeast  Level Estimated
Sun 10:11:00 PM 40.6398 -73.7789 150° Southeast  Level Estimated
Sun 10:12:00 PM 40.6398 -73.7789 150° Southeast  Level Estimated
Sun 10:13:00 PM 40.6398 -73.7789 150° Southeast  Level Estimated
Sun 10:14:00 PM 40.6398 -73.7789 150° Southeast  Level Estimated
Sun 10:15:00 PM 40.6398 -73.7789 150° Southeast  Level Estimated
Sun 10:16:00 PM 40.6398 -73.7789 150° Southeast  Level Estimated
Sun 10:17:00 PM 40.6398 -73.7789 150° Southeast  Level Estimated
Sun 10:18:00 PM 40.6398 -73.7789 150° Southeast  Level Estimated
Sun 10:19:00 PM 40.6398 -73.7789 150° Southeast  Level Estimated
Sun 10:20:00 PM 40.6398 -73.7789 150° Southeast  Level Estimated
Sun 10:21:00 PM 40.6398 -73.7789 150° Southeast  Level Estimated
Sun 10:22:00 PM 40.6398 -73.7789 150° Southeast  Level Estimated
Sun 10:23:00 PM 40.6398 -73.7789 150° Southeast  Level Estimated
Sun 10:24:00 PM 40.6398 -73.7789 150° Southeast  Level Estimated
Sun 10:25:00 PM 40.6398 -73.7789 150° Southeast  Level Estimated
Sun 10:26:00 PM 40.6398 -73.7789 150° Southeast  Level Estimated
Sun 10:27:00 PM 40.6398 -73.7789 150° Southeast  Level Estimated
Sun 10:28:00 PM 40.6398 -73.7789 150° Southeast  Level Estimated
Sun 10:29:00 PM 40.6398 -73.7789 150° Southeast  Level Estimated
Sun 10:30:00 PM 40.6398 -73.7789 150° Southeast  Level Estimated
Sun 10:31:00 PM 40.6398 -73.7789 150° Southeast  Level Estimated
Sun 10:32:00 PM 40.6398 -73.7789 150° Southeast  Level Estimated
Sun 10:33:00 PM 40.6398 -73.7789 150° Southeast  Level Estimated
Sun 10:34:00 PM 40.6398 -73.7789 150° Southeast  Level Estimated
Sun 10:35:00 PM 40.6398 -73.7789 150° Southeast  Level Estimated
Sun 10:36:00 PM 40.6398 -73.7789 150° Southeast  Level Estimated
Sun 10:37:00 PM 40.6398 -73.7789 150° Southeast  Level Estimated
Sun 10:38:00 PM 40.6398 -73.7789 150° Southeast  Level Estimated
Sun 10:39:00 PM 40.6398 -73.7789 150° Southeast  Level Estimated
Sun 10:40:00 PM 40.6398 -73.7789 150° Southeast  Level Estimated
Sun 10:41:00 PM 40.6398 -73.7789 150° Southeast  Level Estimated
Sun 10:42:00 PM 40.6398 -73.7789 150° Southeast  Level Estimated
Sun 10:43:00 PM 40.6398 -73.7789 150° Southeast  Level Estimated
Sun 10:44:00 PM 40.6398 -73.7789 150° Southeast  Level Estimated
Sun 10:45:00 PM 40.6398 -73.7789 150° Southeast  Level Estimated
Sun 10:46:00 PM 40.6398 -73.7789 150° Southeast  Level Estimated
Sun 10:47:00 PM 40.6398 -73.7789 150° Southeast  Level Estimated
Sun 10:48:00 PM 40.6398 -73.7789 150° Southeast  Level Estimated
Sun 10:49:00 PM 40.6398 -73.7789 150° Southeast  Level Estimated
Sun 10:50:00 PM 40.6398 -73.7789 150° Southeast  Level Estimated
Sun 10:51:00 PM 40.6398 -73.7789 150° Southeast  Level Estimated
Sun 10:52:00 PM 40.6398 -73.7789 150° Southeast  Level Estimated
Sun 10:53:00 PM 40.6398 -73.7789 150° Southeast  Level Estimated
Sun 10:54:00 PM 40.6398 -73.7789 150° Southeast  Level Estimated
Sun 10:55:00 PM 40.6398 -73.7789 150° Southeast  Level Estimated
Sun 10:56:00 PM 40.6398 -73.7789 150° Southeast  Level Estimated
Sun 10:57:00 PM 40.6398 -73.7789 150° Southeast  Level Estimated
Sun 10:58:00 PM 40.6398 -73.7789 150° Southeast  Level Estimated
Sun 10:59:00 PM 40.6398 -73.7789 150° Southeast  Level Estimated
Sun 11:00:00 PM 40.6398 -73.7789 150° Southeast  Level Estimated
Sun 11:01:00 PM 40.6398 -73.7789 150° Southeast  Level Estimated
Sun 11:02:00 PM 40.6398 -73.7789 150° Southeast  Level Estimated
Sun 11:03:00 PM 40.6398 -73.7789 150° Southeast  Level Estimated
Sun 11:04:00 PM 40.6398 -73.7789 150° Southeast  Level Estimated
Sun 11:05:00 PM 40.6398 -73.7789 150° Southeast  Level Estimated
Sun 11:06:00 PM 40.6398 -73.7789 150° Southeast  Level Estimated
Sun 11:07:00 PM 40.6398 -73.7789 150° Southeast  Level Estimated
Sun 11:08:00 PM 40.6398 -73.7789 150° Southeast  Level Estimated
Sun 11:09:00 PM 40.6398 -73.7789 150° Southeast  Level Estimated
Sun 11:10:00 PM 40.6398 -73.7789 150° Southeast  Level Estimated
Sun 11:11:00 PM 40.6398 -73.7789 150° Southeast  Level Estimated
Sun 11:12:00 PM 40.6398 -73.7789 150° Southeast  Level Estimated
Sun 11:13:00 PM 40.6398 -73.7789 150° Southeast  Level Estimated
Sun 11:14:00 PM 40.6398 -73.7789 150° Southeast  Level Estimated
Sun 11:15:00 PM 40.6398 -73.7789 150° Southeast  Level Estimated
Sun 11:16:00 PM 40.6398 -73.7789 150° Southeast  Level Estimated
Sun 11:17:00 PM 40.6398 -73.7789 150° Southeast  Level Estimated
Sun 11:18:00 PM 40.6398 -73.7789 150° Southeast  Level Estimated
Sun 11:19:00 PM 40.6398 -73.7789 150° Southeast  Level Estimated
Sun 11:20:00 PM 40.6398 -73.7789 150° Southeast  Level Estimated
Sun 11:21:00 PM 40.6398 -73.7789 150° Southeast  Level Estimated
Sun 11:22:00 PM 40.6398 -73.7789 150° Southeast  Level Estimated
Sun 11:23:00 PM 40.6398 -73.7789 150° Southeast  Level Estimated
Sun 11:24:00 PM 40.6398 -73.7789 150° Southeast  Level Estimated
Sun 11:25:00 PM 40.6398 -73.7789 150° Southeast  Level Estimated
Sun 11:26:00 PM 40.6398 -73.7789 150° Southeast  Level Estimated
Sun 11:27:00 PM 40.6398 -73.7789 150° Southeast  Level Estimated
Sun 11:28:00 PM 40.6398 -73.7789 150° Southeast  Level Estimated
Sun 11:29:00 PM 40.6398 -73.7789 150° Southeast  Level Estimated
Sun 11:30:00 PM 40.6398 -73.7789 150° Southeast  Level Estimated
Sun 11:31:00 PM 40.6398 -73.7789 150° Southeast  Level Estimated
Sun 11:32:00 PM 40.6398 -73.7789 150° Southeast  Level Estimated
Sun 11:33:00 PM 40.6398 -73.7789 150° Southeast  Level Estimated
Sun 11:34:00 PM 40.6398 -73.7789 150° Southeast  Level Estimated
Sun 11:35:00 PM 40.6398 -73.7789 150° Southeast  Level Estimated
Sun 11:36:00 PM 40.6398 -73.7789 150° Southeast  Level Estimated
Sun 11:37:00 PM 40.6398 -73.7789 150° Southeast  Level Estimated
Sun 11:38:00 PM 40.6398 -73.7789 150° Southeast  Level Estimated
Sun 11:39:00 PM 40.6398 -73.7789 150° Southeast  Level Estimated
Sun 11:40:00 PM 40.6398 -73.7789 150° Southeast  Level Estimated
Sun 11:41:00 PM 40.6398 -73.7789 150° Southeast  Level Estimated
Sun 11:42:00 PM 40.6398 -73.7789 150° Southeast  Level Estimated
Sun 11:43:00 PM 40.6398 -73.7789 150° Southeast  Level Estimated
Sun 11:44:00 PM 40.6398 -73.7789 150° Southeast  Level Estimated
Sun 11:45:00 PM 40.6398 -73.7789 150° Southeast  Level Estimated
Sun 11:46:00 PM 40.6398 -73.7789 150° Southeast  Level Estimated
Sun 11:47:00 PM 40.6398 -73.7789 150° Southeast  Level Estimated
Sun 11:48:00 PM 40.6398 -73.7789 150° Southeast  Level Estimated
Sun 11:49:00 PM 40.6398 -73.7789 150° Southeast  Level Estimated
Sun 11:50:00 PM 40.6398 -73.7789 150° Southeast  Level Estimated
Sun 11:51:00 PM 40.6398 -73.7789 150° Southeast  Level Estimated
Sun 11:52:00 PM 40.6398 -73.7789 150° Southeast  Level Estimated
Sun 11:53:00 PM 40.6398 -73.7789 150° Southeast  Level Estimated
Sun 11:54:00 PM 40.6398 -73.7789 150° Southeast  Level Estimated
Sun 11:55:00 PM 40.6398 -73.7789 150° Southeast  Level Estimated
Sun 11:56:00 PM 40.6398 -73.7789 150° Southeast  Level Estimated
Sun 11:57:00 PM 40.6398 -73.7789 150° Southeast  Level Estimated
Sun 11:58:00 PM 40.6398 -73.7789 150° Southeast  Level Estimated
Sun 11:59:00 PM 40.6398 -73.7789 150° Southeast  Level Estimated
Mon 12:00:00 AM 40.6398 -73.7789 150° Southeast  Level Estimated
Mon 12:01:00 AM 40.6398 -73.7789 150° Southeast  Level Estimated
Mon 12:02:00 AM 40.6398 -73.7789 150° Southeast  Level Estimated
Mon 12:03:00 AM 40.6398 -73.7789 150° Southeast  Level Estimated
Mon 12:04:00 AM 40.6398 -73.7789 150° Southeast  Level Estimated
Mon 12:05:00 AM 40.6398 -73.7789 150° Southeast  Level Estimated
Mon 12:06:00 AM 40.6398 -73.7789 150° Southeast  Level Estimated
Mon 12:07:00 AM 40.6398 -73.7789 150° Southeast  Level Estimated
Mon 12:08:00 AM 40.6398 -73.7789 150° Southeast  Level Estimated
Mon 12:09:00 AM 40.6398 -73.7789 150° Southeast  Level Estimated
Mon 12:10:00 AM 40.6398 -73.7789 150° Southeast  Level Estimated
Mon 12:11:00 AM 40.6398 -73.7789 150° Southeast  Level Estimated
Mon 12:12:00 AM 40.6398 -73.7789 150° Southeast  Level Estimated
Mon 12:13:00 AM 40.6398 -73.7789 150° Southeast  Level Estimated
Mon 12:14:00 AM 40.6398 -73.7789 150° Southeast  Level Estimated
Mon 12:15:00 AM 40.6398 -73.7789 150° Southeast  Level Estimated
Mon 12:16:00 AM 40.6398 -73.7789 150° Southeast  Level Estimated
Mon 12:17:00 AM 40.6398 -73.7789 150° Southeast  Level Estimated
Mon 12:18:00 AM 40.6398 -73.7789 150° Southeast  Level Estimated
Mon 12:19:00 AM 40.6398 -73.7789 150° Southeast  Level Estimated
Mon 12:20:00 AM 40.6398 -73.7789 150° Southeast  Level Estimated
Mon 12:21:00 AM 40.6398 -73.7789 150° Southeast  Level Estimated
Mon 12:22:00 AM 40.6398 -73.7789 150° Southeast  Level Estimated
Mon 12:23:00 AM 40.6398 -73.7789 150° Southeast  Level Estimated
Mon 12:24:00 AM 40.6398 -73.7789 150° Southeast  Level Estimated
Mon 12:25:00 AM 40.6398 -73.7789 150° Southeast  Level Estimated
Mon 12:26:00 AM 40.6398 -73.7789 150° Southeast  Level Estimated
Mon 12:27:00 AM 40.6398 -73.7789 150° Southeast  Level Estimated
Mon 12:28:00 AM 40.6398 -73.7789 150° Southeast  Level Estimated
Mon 12:29:00 AM 40.6398 -73.7789 150° Southeast  Level Estimated
Mon 12:30:00 AM 40.6398 -73.7789 150° Southeast  Level Estimated
Mon 12:31:00 AM 40.6398 -73.7789 150° Southeast  Level Estimated
Mon 12:32:00 AM 40.6398 -73.7789 150° Southeast  Level Estimated
Mon 12:33:00 AM 40.6398 -73.7789 150° Southeast  Level Estimated
Mon 12:34:00 AM 40.6398 -73.7789 150° Southeast  Level Estimated
Mon 12:35:00 AM 40.6398 -73.7789 150° Southeast  Level Estimated
Mon 12:36:00 AM 40.6398 -73.7789 150° Southeast  Level Estimated
Mon 12:37:00 AM 40.6398 -73.7789 150° Southeast  Level Estimated
Mon 12:38:00 AM 40.6398 -73.7789 150° Southeast  Level Estimated
Mon 12:39:00 AM 40.6398 -73.7789 150° Southeast  Level Estimated
Mon 12:40:00 AM 40.6398 -73.7789 150° Southeast  Level Estimated
Mon 12:41:00 AM 40.6398 -73.7789 150° Southeast  Level Estimated
Mon 12:42:00 AM 40.6398 -73.7789 150° Southeast  Level Estimated
Mon 12:43:00 AM 40.6398 -73.7789 150° Southeast  Level Estimated
Mon 12:44:00 AM 40.6398 -73.7789 150° Southeast  Level Estimated
Mon 12:45:00 AM 40.6398 -73.7789 150° Southeast  Level Estimated
Mon 12:46:00 AM 40.6398 -73.7789 150° Southeast  Level Estimated
Mon 12:47:00 AM 40.6398 -73.7789 150° Southeast  Level Estimated
Mon 12:48:00 AM 40.6398 -73.7789 150° Southeast  Level Estimated
Mon 12:49:00 AM 40.6398 -73.7789 150° Southeast  Level Estimated
Mon 12:50:00 AM 40.6398 -73.7789 150° Southeast  Level Estimated
Mon 12:51:00 AM 40.6398 -73.7789 150° Southeast  Level Estimated
Mon 12:52:00 AM 40.6398 -73.7789 150° Southeast  Level Estimated
Mon 12:53:00 AM 40.6398 -73.7789 150° Southeast  Level Estimated
Mon 12:54:00 AM 40.6398 -73.7789 150° Southeast  Level Estimated
Mon 12:55:00 AM 40.6398 -73.7789 150° Southeast  Level Estimated
Mon 12:56:00 AM 40.6398 -73.7789 150° Southeast  Level Estimated
Mon 12:57:00 AM 40.6398 -73.7789 150° Southeast  Level Estimated
Mon 12:58:00 AM 40.6398 -73.7789 150° Southeast  Level Estimated
Mon 12:59:00 AM 40.6398 -73.7789 150° Southeast  Level Estimated
Mon 01:00:00 AM 40.6398 -73.7789 150° Southeast  Level Estimated
Mon 01:01:00 AM 40.6398 -73.7789 150° Southeast  Level Estimated
Mon 01:02:00 AM 40.6398 -73.7789 150° Southeast  Level Estimated
Mon 01:03:00 AM 40.6398 -73.7789 150° Southeast  Level Estimated
Mon 01:04:00 AM 40.6398 -73.7789 150° Southeast  Level Estimated
Mon 01:05:00 AM 40.6398 -73.7789 150° Southeast  Level Estimated
Mon 01:06:00 AM 40.6398 -73.7789 150° Southeast  Level Estimated
Mon 01:07:00 AM 40.6398 -73.7789 150° Southeast  Level Estimated
Mon 01:08:00 AM 40.6398 -73.7789 150° Southeast  Level Estimated
Mon 01:09:00 AM 40.6398 -73.7789 150° Southeast  Level Estimated
Mon 01:10:00 AM 40.6398 -73.7789 150° Southeast  Level Estimated
Mon 01:11:00 AM 40.6398 -73.7789 150° Southeast  Level Estimated
Mon 01:12:00 AM 40.6398 -73.7789 150° Southeast  Level Estimated
Mon 01:13:00 AM 40.6398 -73.7789 150° Southeast  Level Estimated
Mon 01:14:00 AM 40.6398 -73.7789 150° Southeast  Level Estimated
Mon 01:15:00 AM 40.6398 -73.7789 150° Southeast  Level Estimated
Mon 01:16:00 AM 40.6398 -73.7789 150° Southeast  Level Estimated
Mon 01:17:00 AM 40.6398 -73.7789 150° Southeast  Level Estimated
Mon 01:18:00 AM 40.6398 -73.7789 150° Southeast  Level Estimated
Mon 01:19:00 AM 40.6398 -73.7789 150° Southeast  Level Estimated
Mon 01:20:00 AM 40.6398 -73.7789 150° Southeast  Level Estimated
Mon 01:21:00 AM 40.6398 -73.7789 150° Southeast  Level Estimated
Mon 01:22:00 AM 40.6398 -73.7789 150° Southeast  Level Estimated
Mon 01:23:00 AM 40.6398 -73.7789 150° Southeast  Level Estimated
Mon 01:24:00 AM 40.6398 -73.7789 150° Southeast  Level Estimated
Mon 01:25:00 AM 40.6398 -73.7789 150° Southeast  Level Estimated
Mon 01:26:00 AM 40.6398 -73.7789 150° Southeast  Level Estimated
Mon 01:27:00 AM 40.6398 -73.7789 150° Southeast  Level Estimated
Mon 01:28:00 AM 40.6398 -73.7789 150° Southeast  Level Estimated
Mon 01:29:00 AM 40.6398 -73.7789 150° Southeast  Level Estimated
Mon 01:30:00 AM 40.6398 -73.7789 150° Southeast  Level Estimated
Mon 01:31:00 AM 40.6398 -73.7789 150° Southeast  Level Estimated
Mon 01:32:00 AM 40.6398 -73.7789 150° Southeast  Level Estimated
Mon 01:33:00 AM 40.6398 -73.7789 150° Southeast  Level Estimated
Mon 01:34:00 AM 40.6398 -73.7789 150° Southeast  Level Estimated
Mon 01:35:00 AM 40.6398 -73.7789 150° Southeast  Level Estimated
Mon 01:36:00 AM 40.6398 -73.7789 150° Southeast  Level Estimated
Mon 01:37:00 AM 40.6398 -73.7789 150° Southeast  Level Estimated
Mon 01:38:00 AM 40.6398 -73.7789 150° Southeast  Level Estimated
Mon 01:39:00 AM 40.6398 -73.7789 150° Southeast  Level Estimated
Mon 01:40:00 AM 40.6398 -73.7789 150° Southeast  Level Estimated
Mon 01:41:00 AM 40.6398 -73.7789 150° Southeast  Level Estimated
Mon 01:42:00 AM 40.6398 -73.7789 150° Southeast  Level Estimated
Mon 01:43:00 AM 40.6398 -73.7789 150° Southeast  Level Estimated
Mon 01:44:00 AM 40.6398 -73.7789 150° Southeast  Level Estimated
Mon 01:45:00 AM 40.6398 -73.7789 150° Southeast  Level Estimated
Mon 01:46:00 AM 40.6398 -73.7789 150° Southeast  Level Estimated
Mon 01:47:00 AM 40.6398 -73.7789 150° Southeast  Level Estimated
Mon 01:48:00 AM 40.6398 -73.7789 150° Southeast  Level Estimated
Mon 01:49:00 AM 40.6398 -73.7789 150° Southeast  Level Estimated
Mon 01:50:00 AM 40.6398 -73.7789 150° Southeast  Level Estimated
Mon 01:51:00 AM 40.6398 -73.7789 150° Southeast  Level Estimated
Mon 01:52:00 AM 40.6398 -73.7789 150° Southeast  Level Estimated
Mon 01:53:00 AM 40.6398 -73.7789 150° Southeast  Level Estimated
Mon 01:54:00 AM 40.6398 -73.7789 150° Southeast  Level Estimated
Mon 01:55:00 AM 40.6398 -73.7789 150° Southeast  Level Estimated
Mon 01:56:00 AM 40.6398 -73.7789 150° Southeast  Level Estimated
Mon 01:57:00 AM 40.6398 -73.7789 150° Southeast  Level Estimated
Mon 01:58:00 AM 40.6398 -73.7789 150° Southeast  Level Estimated
Mon 01:59:00 AM 40.6398 -73.7789 150° Southeast  Level Estimated
Mon 02:00:00 AM 40.6398 -73.7789 150° Southeast  Level Estimated
Mon 02:01:00 AM 40.6398 -73.7789 150° Southeast  Level Estimated
Mon 02:02:00 AM 40.6398 -73.7789 150° Southeast  Level Estimated
Mon 02:03:00 AM 40.6398 -73.7789 150° Southeast  Level Estimated
Mon 02:04:00 AM 40.6398 -73.7789 150° Southeast  Level Estimated
Mon 02:05:00 AM 40.6398 -73.7789 150° Southeast  Level Estimated
Mon 02:06:00 AM 40.6398 -73.7789 150° Southeast  Level Estimated
Mon 02:07:00 AM 40.6398 -73.7789 150° Southeast  Level Estimated
Mon 02:08:00 AM 40.6398 -73.7789 150° Southeast  Level Estimated
Mon 02:09:00 AM 40.6398 -73.7789 150° Southeast  Level Estimated
Mon 02:10:00 AM 40.6398 -73.7789 150° Southeast  Level Estimated
Mon 02:11:00 AM 40.6398 -73.7789 150° Southeast  Level Estimated
Mon 02:12:00 AM 40.6398 -73.7789 150° Southeast  Level Estimated
Mon 02:13:00 AM 40.6398 -73.7789 150° Southeast  Level Estimated
Mon 02:14:00 AM 40.6398 -73.7789 150° Southeast  Level Estimated
Mon 02:15:00 AM 40.6398 -73.7789 150° Southeast  Level Estimated
Mon 02:16:00 AM 40.6398 -73.7789 150° Southeast  Level Estimated
Mon 02:17:00 AM 40.6398 -73.7789 150° Southeast  Level Estimated
Mon 02:18:00 AM 40.6398 -73.7789 150° Southeast  Level Estimated
Mon 02:19:00 AM 40.6398 -73.7789 150° Southeast  Level Estimated
Mon 02:20:00 AM 40.6398 -73.7789 150° Southeast  Level Estimated
Mon 02:21:00 AM 40.6398 -73.7789 150° Southeast  Level Estimated
Mon 02:22:00 AM 40.6398 -73.7789 150° Southeast  Level Estimated
Mon 02:23:00 AM 40.6398 -73.7789 150° Southeast  Level Estimated
Mon 02:24:00 AM 40.6398 -73.7789 150° Southeast  Level Estimated
Mon 02:25:00 AM 40.6398 -73.7789 150° Southeast  Level Estimated
Mon 02:26:00 AM 40.6398 -73.7789 150° Southeast  Level Estimated
Mon 02:27:00 AM 40.6398 -73.7789 150° Southeast  Level Estimated
Mon 02:28:00 AM 40.6398 -73.7789 150° Southeast  Level Estimated
Mon 02:29:00 AM 40.6398 -73.7789 150° Southeast  Level Estimated
Mon 02:30:00 AM 40.6398 -73.7789 150° Southeast  Level Estimated
Mon 02:31:00 AM 40.6398 -73.7789 150° Southeast  Level Estimated
Mon 02:32:00 AM 40.6398 -73.7789 150° Southeast  Level Estimated
Mon 02:33:00 AM 40.6398 -73.7789 150° Southeast  Level Estimated
Mon 02:34:00 AM 40.6398 -73.7789 150° Southeast  Level Estimated
Mon 02:35:00 AM 40.6398 -73.7789 150° Southeast  Level Estimated
Mon 02:36:00 AM 40.6398 -73.7789 150° Southeast  Level Estimated
Mon 02:37:00 AM 40.6398 -73.7789 150° Southeast  Level Estimated
Mon 02:38:00 AM 40.6398 -73.7789 150° Southeast  Level Estimated
Mon 02:39:00 AM 40.6398 -73.7789 150° Southeast  Level Estimated
Mon 02:40:00 AM 40.6398 -73.7789 150° Southeast  Level Estimated
Mon 02:41:00 AM 40.6398 -73.7789 150° Southeast  Level Estimated
Mon 02:42:00 AM 40.6398 -73.7789 150° Southeast  Level Estimated
Mon 02:43:00 AM 40.6398 -73.7789 150° Southeast  Level Estimated
Mon 02:44:00 AM 40.6398 -73.7789 150° Southeast  Level Estimated
Mon 02:45:00 AM 40.6398 -73.7789 150° Southeast  Level Estimated
Mon 02:46:00 AM 40.6398 -73.7789 150° Southeast  Level Estimated
Mon 02:47:00 AM 40.6398 -73.7789 150° Southeast  Level Estimated
Mon 02:48:00 AM 40.6398 -73.7789 150° Southeast  Level Estimated
Mon 02:49:00 AM 40.6398 -73.7789 150° Southeast  Level Estimated
Mon 02:50:00 AM 40.6398 -73.7789 150° Southeast  Level Estimated
Mon 02:51:00 AM 40.6398 -73.7789 150° Southeast  Level Estimated
Mon 02:52:00 AM 40.6398 -73.7789 150° Southeast  Level Estimated
Mon 02:53:00 AM 40.6398 -73.7789 150° Southeast  Level Estimated
Mon 02:54:00 AM 40.6398 -73.7789 150° Southeast  Level Estimated
Mon 02:55:00 AM 40.6398 -73.7789 150° Southeast  Level Estimated
Mon 02:56:00 AM 40.6398 -73.7789 150° Southeast  Level Estimated
Mon 02:57:00 AM 40.6398 -73.7789 150° Southeast  Level Estimated
Mon 02:58:00 AM 40.6398 -73.7789 150° Southeast  Level Estimated
Mon 02:59:00 AM 40.6398 -73.7789 150° Southeast  Level Estimated
Mon 03:00:00 AM 40.6398 -73.7789 150° Southeast  Level Estimated
Mon 03:01:00 AM 40.6398 -73.7789 150° Southeast  Level Estimated
Mon 03:02:00 AM 40.6398 -73.7789 150° Southeast  Level Estimated
Mon 03:03:00 AM 40.6398 -73.7789 150° Southeast  Level Estimated
Mon 03:04:00 AM 40.6398 -73.7789 150° Southeast  Level Estimated
Mon 03:05:00 AM 40.6398 -73.7789 150° Southeast  Level Estimated
Mon 03:06:00 AM 40.6398 -73.7789 150° Southeast  Level Estimated
Mon 03:07:00 AM 40.6398 -73.7789 150° Southeast  Level Estimated
Mon 03:08:00 AM 40.6398 -73.7789 150° Southeast  Level Estimated
Mon 03:09:00 AM 40.6398 -73.7789 150° Southeast  Level Estimated
Mon 03:10:00 AM 40.6398 -73.7789 150° Southeast  Level Estimated
Mon 03:11:00 AM 40.6398 -73.7789 150° Southeast  Level Estimated
Mon 03:12:00 AM 40.6398 -73.7789 150° Southeast  Level Estimated
Mon 03:13:00 AM 40.6398 -73.7789 150° Southeast  Level Estimated
Mon 03:14:00 AM 40.6398 -73.7789 150° Southeast  Level Estimated
Mon 03:15:00 AM 40.6398 -73.7789 150° Southeast  Level Estimated
Mon 03:16:00 AM 40.6398 -73.7789 150° Southeast  Level Estimated
Mon 03:17:00 AM 40.6398 -73.7789 150° Southeast  Level Estimated
Mon 03:18:00 AM 40.6398 -73.7789 150° Southeast  Level Estimated
Mon 03:19:00 AM 40.6398 -73.7789 150° Southeast  Level Estimated
Mon 03:20:00 AM 40.6398 -73.7789 150° Southeast  Level Estimated
Mon 03:21:00 AM 40.6398 -73.7789 150° Southeast  Level Estimated
Mon 03:22:00 AM 40.6398 -73.7789 150° Southeast  Level Estimated
Mon 03:23:00 AM 40.6398 -73.7789 150° Southeast  Level Estimated
Mon 03:24:00 AM 40.6398 -73.7789 150° Southeast  Level Estimated
Mon 03:25:00 AM 40.6398 -73.7789 150° Southeast  Level Estimated
Mon 03:26:00 AM 40.6398 -73.7789 150° Southeast  Level Estimated
Mon 03:27:00 AM 40.6398 -73.7789 150° Southeast  Level Estimated
Mon 03:28:00 AM 40.6398 -73.7789 150° Southeast  Level Estimated
Mon 03:29:00 AM 40.6398 -73.7789 150° Southeast  Level Estimated
Mon 03:30:00 AM 40.6398 -73.7789 150° Southeast  Level Estimated
Mon 03:31:00 AM 40.6398 -73.7789 150° Southeast  Level Estimated
Mon 03:32:00 AM 40.6398 -73.7789 150° Southeast  Level Estimated
Mon 03:33:00 AM 40.6398 -73.7789 150° Southeast  Level Estimated
Mon 03:34:00 AM 40.6398 -73.7789 150° Southeast  Level Estimated
Mon 03:35:00 AM 40.6398 -73.7789 150° Southeast  Level Estimated
Mon 03:36:00 AM 40.6398 -73.7789 150° Southeast  Level Estimated
Mon 03:37:00 AM 40.6398 -73.7789 150° Southeast  Level Estimated
Mon 03:38:00 AM 40.6398 -73.7789 150° Southeast  Level Estimated
Mon 03:39:00 AM 40.6398 -73.7789 150° Southeast  Level Estimated

Login

Don't have an account? Register now (free) for customized features, flight alerts, and more!